Observation Tools

Tulip poplar Photo courtesy of ©2005 Louis-M. Landry.

Tulip poplar (Liriodendron tulipifera)


Also Known As: Tulip tree
Plant Family: Magnolia (Magnoliaceae)
Project BudBurst Plant Group: Deciduous Trees and Shrubs

Identification Hints: The leaves of the tulip poplar have a unique star-like or even tulip like shape and showy orange-yellow flowers similar in shape to tulips.

Did you Know? First Nations used the inner bark medicinally as worming medicine, antiarthritic, cough syrup and cholera remedy. Pioneers hollowed out the massive trunk to make a long, lightweight canoe. One of the chief commercial hardwoods, Tulip Poplar is used for furniture, as well as for crates, toys, musical instruments, and pulpwood. This is a favorite nesting tree for birds and the flowers attract hummingbirds.


Live Map for Tulip poplar

Other years available for viewing:

Below you can view all observations that have been reported in for Tulip poplar (If the map below is empty then there have not been any observations reported.)

Use the navigation buttons on the left to zoom in/out and pan around. Click on each place marker to get detail information about that observation.

Leaf/Needles/Stalk = Leaf/Needles/Stalk Flower = Flower Pollen = Pollen Fruiting = Fruiting Color = Color

--Back to Top--

close help window button

The table below displays all the data that has been submitted to Project BudBurst. By default, the data is sorted by the date on which the phenophase occurred. Clicking the up and down arrows next to each column name allows you to sort on any value. If there have been more than 10 observations submitted, you can choose how many to display at a time using the "Show __ entries" control. You can also page through the data using the previous and next buttons at the bottom right of the table.

The Search box allows you to search all of the data. Searching by date, species, phenophase, etc. is easy—just start typing and the table will immediately change to contain only observations that contain your search phrase. Do you want to see only 2012 observations? Just type "2012" in the search box. Only want to see maples? Enter "Acer." You can combine searches, too! Searching for "acer 2012" will narrow your results to only the maples that were observed in 2012 (assuming that any observations exist, of course).

Once you have your results in the order desired, you can use any of the buttons above the search box to copy the results to the clipboard; save them as a text, or spreadsheet; or even print them from your browser!

Observational data for Tulip poplar:

help button
Date Contributor Common Name Species Phenophase Latitude Longitude Obs#
Sat Feb 16 00:00:00 GMT 2008 rrpgsp Tulip poplar Liriodendron tulipifera First Leaf 33.498000000000000 -86.777900000000000 118
Tue Mar 11 00:00:00 GMT 2008 mastanback Tulip poplar Liriodendron tulipifera First Leaf 35.488800000000000 -80.827500000000000 493
Mon Mar 10 00:00:00 GMT 2008 DRogers@iglou.com Tulip poplar Liriodendron tulipifera First Leaf 38.336100000000000 -85.627500000000000 499
Mon Mar 24 00:00:00 GMT 2008 naturalist Tulip poplar Liriodendron tulipifera First Leaf 35.220000000000000 -80.800000000000000 916
Fri Mar 28 00:00:00 GMT 2008 drhartel Tulip poplar Liriodendron tulipifera First Leaf 34.053600000000000 -83.123100000000000 1005
Sat Mar 29 00:00:00 GMT 2008 aboddie Tulip poplar Liriodendron tulipifera First Leaf 35.098600000000000 -89.783700000000000 1082
Mon Mar 31 00:00:00 GMT 2008 anonymous Tulip poplar Liriodendron tulipifera First Leaf 39.066800000000000 -76.996900000000000 1280
Thu Mar 20 00:00:00 GMT 2008 marshdoc Tulip poplar Liriodendron tulipifera First Leaf 34.263100000000000 -83.744700000000000 1317
Tue Apr 08 00:00:00 GMT 2008 Hillersouth Tulip poplar Liriodendron tulipifera First Leaf 34.785200000000000 -83.933300000000000 1366
Sat Apr 05 00:00:00 GMT 2008 gmdwilcox Tulip poplar Liriodendron tulipifera First Leaf 39.340600000000000 -85.203900000000000 1381
Thu Apr 10 00:00:00 GMT 2008 pepperoni99 Tulip poplar Liriodendron tulipifera First Leaf 38.184700000000000 -84.625500000000000 1504
Thu Apr 10 00:00:00 GMT 2008 Yvonne Orkin Tulip poplar Liriodendron tulipifera First Leaf 38.953900000000000 -75.933100000000000 1677
Thu Mar 27 00:00:00 GMT 2008 anonymous Tulip poplar Liriodendron tulipifera First Leaf 32.239000000000000 -81.451100000000000 2065
Wed Apr 16 00:00:00 GMT 2008 anonymous Tulip poplar Liriodendron tulipifera All Leaves Unfolded 32.239000000000000 -81.451100000000000 2066
Sat Apr 19 00:00:00 GMT 2008 anonymous Tulip poplar Liriodendron tulipifera First Leaf 32.239000000000000 -81.451000000000000 2067
Sat Apr 19 00:00:00 GMT 2008 anonymous Tulip poplar Liriodendron tulipifera First Leaf 32.239000000000000 -81.451000000000000 2068
Fri Mar 07 00:00:00 GMT 2008 clowerpower86 Tulip poplar Liriodendron tulipifera First Leaf 31.559400000000000 -81.595700000000000 2140
Fri Mar 21 00:00:00 GMT 2008 clowerpower86 Tulip poplar Liriodendron tulipifera All Leaves Unfolded 31.559400000000000 -81.595700000000000 2141
Thu Apr 17 00:00:00 GMT 2008 Jingles Tulip poplar Liriodendron tulipifera First Leaf 39.826100000000000 -75.615600000000000 2303
Fri Apr 25 00:00:00 GMT 2008 naturalist Tulip poplar Liriodendron tulipifera All Leaves Unfolded 35.220000000000000 -80.800000000000000 2440
Thu Apr 24 00:00:00 GMT 2008 IlexAcer Tulip poplar Liriodendron tulipifera First Leaf 42.414800000000000 -71.215700000000000 2608
Sun May 04 00:00:00 GMT 2008 Ilse Tulip poplar Liriodendron tulipifera First Leaf 41.582400000000000 -73.901800000000000 2803
Wed Apr 23 00:00:00 GMT 2008 leonard Tulip poplar Liriodendron tulipifera First Leaf 39.984500000000000 -81.150000000000000 3126
Thu Apr 10 00:00:00 GMT 2008 anonymous Tulip poplar Liriodendron tulipifera First Leaf 38.926500000000000 -77.339500000000000 3577
Wed Apr 16 00:00:00 GMT 2008 brroookexd Tulip poplar Liriodendron tulipifera First Leaf 41.138000000000000 -81.864000000000000 3649
Sat Apr 26 00:00:00 GMT 2008 brroookexd Tulip poplar Liriodendron tulipifera All Leaves Unfolded 41.138000000000000 -81.864000000000000 3650
Wed May 14 00:00:00 GMT 2008 brroookexd Tulip poplar Liriodendron tulipifera First Flower 41.138000000000000 -81.864000000000000 3651
Mon May 19 00:00:00 GMT 2008 brroookexd Tulip poplar Liriodendron tulipifera Full Flower 41.138000000000000 -81.864000000000000 3652
Thu May 29 00:00:00 GMT 2008 brroookexd Tulip poplar Liriodendron tulipifera End of Flowering 41.138000000000000 -81.864000000000000 3653
Mon Jun 02 00:00:00 GMT 2008 brroookexd Tulip poplar Liriodendron tulipifera First Ripe Fruit 41.138000000000000 -81.864000000000000 3654
Mon May 05 00:00:00 GMT 2008 cpartain Tulip poplar Liriodendron tulipifera First Flower 39.362200000000000 -76.680500000000000 3805
Mon May 26 00:00:00 GMT 2008 cpartain Tulip poplar Liriodendron tulipifera Full Flower 39.362200000000000 -76.680500000000000 3806
Thu Apr 10 00:00:00 GMT 2008 Jingles Tulip poplar Liriodendron tulipifera All Leaves Unfolded 39.826100000000000 -75.615600000000000 3856
Fri May 16 00:00:00 GMT 2008 Jingles Tulip poplar Liriodendron tulipifera First Flower 39.826100000000000 -75.615600000000000 3857
Mon May 05 00:00:00 GMT 2008 SusannahPrindle Tulip poplar Liriodendron tulipifera First Flower 39.096700000000000 -77.023900000000000 4620
Sun Apr 20 00:00:00 GMT 2008 anonymous Tulip poplar Liriodendron tulipifera First Leaf 40.705300000000000 -79.697100000000000 4843
Mon Apr 28 00:00:00 GMT 2008 anonymous Tulip poplar Liriodendron tulipifera All Leaves Unfolded 40.705300000000000 -79.697100000000000 4844
Thu May 29 00:00:00 GMT 2008 anonymous Tulip poplar Liriodendron tulipifera Full Flower 40.705300000000000 -79.697100000000000 4845
Wed Oct 15 00:00:00 GMT 2008 anonymous Tulip poplar Liriodendron tulipifera First Ripe Fruit 40.705300000000000 -79.697100000000000 4846
Sun Apr 13 00:00:00 GMT 2008 tmdlynch Tulip poplar Liriodendron tulipifera First Leaf 40.348200000000000 -75.286700000000000 4880
Mon Mar 09 00:00:00 GMT 2009 sgriffin@lincolnschools.org Tulip poplar Liriodendron tulipifera First Leaf 32.531400000000000 -92.637900000000000 4962
Tue Mar 10 00:00:00 GMT 2009 creed Tulip poplar Liriodendron tulipifera First Leaf 39.083900000000000 -77.156800000000000 4992
Thu Apr 02 00:00:00 GMT 2009 anonymous Tulip poplar Liriodendron tulipifera First Leaf 38.974800000000000 -77.154200000000000 5438
Sun Apr 05 00:00:00 GMT 2009 anonymous Tulip poplar Liriodendron tulipifera All Leaves Unfolded 38.974800000000000 -77.154200000000000 5439
Thu Apr 02 00:00:00 GMT 2009 mdunn Tulip poplar Liriodendron tulipifera First Leaf 35.757100000000000 -79.107000000000000 5441
Sat Apr 11 00:00:00 GMT 2009 sigridmoore Tulip poplar Liriodendron tulipifera First Flower 42.497300000000000 -83.126200000000000 5605
Fri Apr 10 00:00:00 GMT 2009 fsanford Tulip poplar Liriodendron tulipifera First Leaf 38.946800000000000 -77.070500000000000 5678
Wed Apr 15 00:00:00 GMT 2009 Wildegenes Tulip poplar Liriodendron tulipifera First Leaf 38.899100000000000 -77.098400000000000 5748
Wed Apr 15 00:00:00 GMT 2009 Wildegenes Tulip poplar Liriodendron tulipifera All Leaves Unfolded 38.899100000000000 -77.098400000000000 5749
Fri Apr 10 00:00:00 GMT 2009 creed Tulip poplar Liriodendron tulipifera All Leaves Unfolded 39.083900000000000 -77.156800000000000 5755
Wed Apr 15 00:00:00 GMT 2009 climbthemountain@gmail.com Tulip poplar Liriodendron tulipifera First Leaf 40.746900000000000 -74.916200000000000 5780
Mon Apr 06 00:00:00 GMT 2009 srulison Tulip poplar Liriodendron tulipifera First Leaf 37.540000000000000 -75.920000000000000 5818
Thu Apr 09 00:00:00 GMT 2009 srulison Tulip poplar Liriodendron tulipifera All Leaves Unfolded 37.540000000000000 -75.920000000000000 5819
Fri Mar 13 00:00:00 GMT 2009 anonymous Tulip poplar Liriodendron tulipifera First Flower 39.160000000000000 -86.490000000000000 5906
Fri Mar 13 00:00:00 GMT 2009 kdevore Tulip poplar Liriodendron tulipifera First Flower 39.160000000000000 -86.490000000000000 5911
Fri Apr 03 00:00:00 GMT 2009 anonymous Tulip poplar Liriodendron tulipifera First Leaf 39.140000000000000 -86.620000000000000 6032
Sat Mar 07 00:00:00 GMT 2009 anonymous Tulip poplar Liriodendron tulipifera First Leaf 39.164300000000000 -86.526900000000000 6200
Sat Mar 28 00:00:00 GMT 2009 anonymous Tulip poplar Liriodendron tulipifera All Leaves Unfolded 39.164300000000000 -86.526900000000000 6201
Sun Mar 15 00:00:00 GMT 2009 anonymous Tulip poplar Liriodendron tulipifera First Flower 39.164300000000000 -86.526900000000000 6202
Sat Apr 04 00:00:00 GMT 2009 anonymous Tulip poplar Liriodendron tulipifera Full Flower 39.164300000000000 -86.526900000000000 6203
Mon Apr 06 00:00:00 GMT 2009 sjrulison Tulip poplar Liriodendron tulipifera First Leaf 37.545100000000000 -75.927600000000000 6551
Thu Apr 16 00:00:00 GMT 2009 sjrulison Tulip poplar Liriodendron tulipifera All Leaves Unfolded 37.545100000000000 -75.927600000000000 6552
Mon Mar 09 00:00:00 GMT 2009 anonymous Tulip poplar Liriodendron tulipifera First Leaf 39.180000000000000 -86.550000000000000 6750
Mon Apr 06 00:00:00 GMT 2009 anonymous Tulip poplar Liriodendron tulipifera All Leaves Unfolded 39.180000000000000 -86.550000000000000 6751
Fri May 15 00:00:00 GMT 2009 rg Tulip poplar Liriodendron tulipifera First Flower 39.671500000000000 -82.541200000000000 7619
Sun Mar 29 00:00:00 GMT 2009 anonymous Tulip poplar Liriodendron tulipifera First Leaf 35.057900000000000 -80.822000000000000 7757
Thu Apr 30 00:00:00 GMT 2009 climbthemountain@gmail.com Tulip poplar Liriodendron tulipifera All Leaves Unfolded 40.746900000000000 -74.916200000000000 8002
Fri May 15 00:00:00 GMT 2009 climbthemountain@gmail.com Tulip poplar Liriodendron tulipifera First Flower 40.746900000000000 -74.916200000000000 8003
Sun May 24 00:00:00 GMT 2009 climbthemountain@gmail.com Tulip poplar Liriodendron tulipifera Full Flower 40.746900000000000 -74.916200000000000 8004
Thu Apr 09 00:00:00 GMT 2009 KShaw Tulip poplar Liriodendron tulipifera First Leaf 38.926500000000000 -77.339500000000000 8062
Sun Apr 19 00:00:00 GMT 2009 KShaw Tulip poplar Liriodendron tulipifera All Leaves Unfolded 38.926500000000000 -77.339500000000000 8063
Fri Apr 24 00:00:00 GMT 2009 KShaw Tulip poplar Liriodendron tulipifera First Flower 38.926500000000000 -77.339500000000000 8064
Mon May 04 00:00:00 GMT 2009 KShaw Tulip poplar Liriodendron tulipifera Full Flower 38.926500000000000 -77.339500000000000 8065
Sun May 10 00:00:00 GMT 2009 KShaw Tulip poplar Liriodendron tulipifera End of Flowering 38.926500000000000 -77.339500000000000 8066
Sat Apr 25 00:00:00 GMT 2009 joenesgarden Tulip poplar Liriodendron tulipifera First Leaf 41.452700000000000 -72.375700000000000 8217
Sun May 31 00:00:00 GMT 2009 joenesgarden Tulip poplar Liriodendron tulipifera First Flower 41.452700000000000 -72.375700000000000 8218
Tue Jun 09 00:00:00 GMT 2009 climbthemountain@gmail.com Tulip poplar Liriodendron tulipifera End of Flowering 40.746900000000000 -74.916200000000000 8285
Fri Oct 23 00:00:00 GMT 2009 centralNY Tulip poplar Liriodendron tulipifera 50% Color 43.041000000000000 -76.212900000000000 8834
Thu Nov 05 00:00:00 GMT 2009 anonymous Tulip poplar Liriodendron tulipifera 50% Color 35.815400000000000 -86.410200000000000 8900
Tue Nov 03 00:00:00 GMT 2009 KaitlinBrown11 Tulip poplar Liriodendron tulipifera 50% Leaf Fall 35.834500000000000 -86.447900000000000 8899
Wed Nov 04 00:00:00 GMT 2009 KaitlinBrown11 Tulip poplar Liriodendron tulipifera 50% Color 35.834500000000000 -86.447900000000000 8913
Sun Mar 29 00:00:00 GMT 2009 anonymous Tulip poplar Liriodendron tulipifera First Leaf 39.066800000000000 -76.996900000000000 9051
Sat Apr 04 00:00:00 GMT 2009 anonymous Tulip poplar Liriodendron tulipifera All Leaves Unfolded 39.066800000000000 -76.996900000000000 9052
Mon May 04 00:00:00 GMT 2009 anonymous Tulip poplar Liriodendron tulipifera First Flower 39.066800000000000 -76.996900000000000 9053
Tue May 12 00:00:00 GMT 2009 anonymous Tulip poplar Liriodendron tulipifera Full Flower 39.066800000000000 -76.996900000000000 9054
Wed Jun 03 00:00:00 GMT 2009 anonymous Tulip poplar Liriodendron tulipifera End of Flowering 39.066800000000000 -76.996900000000000 9055
Thu Oct 08 00:00:00 GMT 2009 anonymous Tulip poplar Liriodendron tulipifera First Ripe Fruit 39.066800000000000 -76.996900000000000 9056
Thu Oct 22 00:00:00 GMT 2009 anonymous Tulip poplar Liriodendron tulipifera 50% Color 39.066800000000000 -76.996900000000000 9057
Wed Mar 17 00:00:00 GMT 2010 anonymous Tulip poplar Liriodendron tulipifera First Leaf 41.725500000000000 -87.674500000000000 9243
Tue Mar 23 00:00:00 GMT 2010 Jessica Tulip poplar Liriodendron tulipifera First Leaf 38.870700000000000 -77.255300000000000 9252
Thu Mar 11 00:00:00 GMT 2010 anonymous Tulip poplar Liriodendron tulipifera First Leaf 39.170000000000000 -86.534900000000000 9468
Wed Apr 14 00:00:00 GMT 2010 Rich Tulip poplar Liriodendron tulipifera First Leaf 40.002400000000000 -80.650600000000000 9608
Tue Mar 02 00:00:00 GMT 2010 learnlivehope247 Tulip poplar Liriodendron tulipifera First Leaf 37.557100000000000 -79.085400000000000 10028
Tue Mar 23 00:00:00 GMT 2010 learnlivehope247 Tulip poplar Liriodendron tulipifera All Leaves Unfolded 37.557100000000000 -79.085400000000000 10029
Tue Apr 06 00:00:00 GMT 2010 learnlivehope247 Tulip poplar Liriodendron tulipifera First Flower 37.557100000000000 -79.085400000000000 10030
Sun Apr 18 00:00:00 GMT 2010 centralNY Tulip poplar Liriodendron tulipifera First Leaf 43.041000000000000 -76.212900000000000 10259
Sat Apr 17 00:00:00 GMT 2010 Rich Tulip poplar Liriodendron tulipifera All Leaves Unfolded 40.002400000000000 -80.650600000000000 10247
Mon Mar 29 00:00:00 GMT 2010 anonymous Tulip poplar Liriodendron tulipifera First Leaf 35.108900000000000 -80.744300000000000 10601
Thu Apr 01 00:00:00 GMT 2010 anonymous Tulip poplar Liriodendron tulipifera All Leaves Unfolded 35.108900000000000 -80.744300000000000 10602
Mon May 03 00:00:00 GMT 2010 anonymous Tulip poplar Liriodendron tulipifera First Flower 35.108900000000000 -80.744300000000000 10603
Tue May 04 00:00:00 GMT 2010 anonymous Tulip poplar Liriodendron tulipifera Full Flower 35.108900000000000 -80.744300000000000 10604
Mon Mar 29 00:00:00 GMT 2010 KShaw Tulip poplar Liriodendron tulipifera First Leaf 38.926500000000000 -77.339500000000000 10998
Thu Apr 01 00:00:00 GMT 2010 KShaw Tulip poplar Liriodendron tulipifera All Leaves Unfolded 38.926500000000000 -77.339500000000000 10999
Mon Apr 26 00:00:00 GMT 2010 KShaw Tulip poplar Liriodendron tulipifera First Flower 38.926500000000000 -77.339500000000000 11000
Thu Apr 29 00:00:00 GMT 2010 KShaw Tulip poplar Liriodendron tulipifera Full Flower 38.926500000000000 -77.339500000000000 11001
Mon May 17 00:00:00 GMT 2010 KShaw Tulip poplar Liriodendron tulipifera End of Flowering 38.926500000000000 -77.339500000000000 11002
Sun Mar 21 00:00:00 GMT 2010 SusannahPrindle Tulip poplar Liriodendron tulipifera First Leaf 39.096700000000000 -77.023900000000000 11063
Thu Mar 25 00:00:00 GMT 2010 SusannahPrindle Tulip poplar Liriodendron tulipifera All Leaves Unfolded 39.096700000000000 -77.023900000000000 11064
Fri Apr 30 00:00:00 GMT 2010 SusannahPrindle Tulip poplar Liriodendron tulipifera First Flower 39.096700000000000 -77.023900000000000 11065
Sat Apr 03 00:00:00 GMT 2010 SusannahPrindle Tulip poplar Liriodendron tulipifera Full Flower 39.096700000000000 -77.023900000000000 11066
Mon May 31 00:00:00 GMT 2010 SusannahPrindle Tulip poplar Liriodendron tulipifera End of Flowering 39.096700000000000 -77.023900000000000 11067
Sun Apr 04 00:00:00 GMT 2010 srulison Tulip poplar Liriodendron tulipifera First Leaf 37.540000000000000 -75.920000000000000 11188
Wed Apr 14 00:00:00 GMT 2010 srulison Tulip poplar Liriodendron tulipifera All Leaves Unfolded 37.540000000000000 -75.920000000000000 11189
Sun Mar 21 00:00:00 GMT 2010 SusannahPrindle Tulip poplar Liriodendron tulipifera First Leaf 39.096700000000000 -77.023900000000000 11651
Thu Mar 25 00:00:00 GMT 2010 SusannahPrindle Tulip poplar Liriodendron tulipifera All Leaves Unfolded 39.096700000000000 -77.023900000000000 11652
Fri Apr 30 00:00:00 GMT 2010 SusannahPrindle Tulip poplar Liriodendron tulipifera First Flower 39.096700000000000 -77.023900000000000 11653
Mon May 03 00:00:00 GMT 2010 SusannahPrindle Tulip poplar Liriodendron tulipifera Full Flower 39.096700000000000 -77.023900000000000 11654
Mon May 31 00:00:00 GMT 2010 SusannahPrindle Tulip poplar Liriodendron tulipifera End of Flowering 39.096700000000000 -77.023900000000000 11655
Tue Jul 27 00:00:00 GMT 2010 SusannahPrindle Tulip poplar Liriodendron tulipifera First Ripe Fruit 39.096700000000000 -77.023900000000000 11656
Mon Oct 25 00:00:00 GMT 2010 SusannahPrindle Tulip poplar Liriodendron tulipifera 50% Color 39.096700000000000 -77.023900000000000 11657
Sun Nov 07 00:00:00 GMT 2010 SusannahPrindle Tulip poplar Liriodendron tulipifera 50% Leaf Fall 39.096700000000000 -77.023900000000000 11658
Mon Mar 29 00:00:00 GMT 2010 SusannahPrindle Tulip poplar Liriodendron tulipifera First Leaf 39.096700000000000 -77.023900000000000 11671
Fri Apr 02 00:00:00 GMT 2010 SusannahPrindle Tulip poplar Liriodendron tulipifera All Leaves Unfolded 39.096700000000000 -77.023900000000000 11672
Wed May 12 00:00:00 GMT 2010 SusannahPrindle Tulip poplar Liriodendron tulipifera Full Flower 39.096700000000000 -77.023900000000000 11673
Wed Oct 27 00:00:00 GMT 2010 SusannahPrindle Tulip poplar Liriodendron tulipifera 50% Color 39.096700000000000 -77.023900000000000 11674
Mon Nov 08 00:00:00 GMT 2010 SusannahPrindle Tulip poplar Liriodendron tulipifera 50% Leaf Fall 39.096700000000000 -77.023900000000000 11675
Tue Feb 08 00:00:00 GMT 2011 hwiebke Tulip poplar Liriodendron tulipifera First Leaf 39.130000000000000 -86.350000000000000 11693
Sun Mar 20 00:00:00 GMT 2011 moranev Tulip poplar Liriodendron tulipifera First Leaf 35.920300000000000 -84.031600000000000 11770
Thu Apr 07 00:00:00 GMT 2011 Dennis2sheds Tulip poplar Liriodendron tulipifera First Leaf 34.717100000000000 -83.980100000000000 11869
Fri Apr 08 00:00:00 GMT 2011 kyyork Tulip poplar Liriodendron tulipifera First Leaf 39.171000000000000 -86.512000000000000 11959
Fri Apr 08 00:00:00 GMT 2011 kyyork Tulip poplar Liriodendron tulipifera First Flower 39.171000000000000 -86.512000000000000 11960
Fri Apr 08 00:00:00 GMT 2011 kyyork Tulip poplar Liriodendron tulipifera Full Flower 39.171000000000000 -86.512000000000000 11961
Fri Apr 08 00:00:00 GMT 2011 kyyork Tulip poplar Liriodendron tulipifera 50% Color 39.171000000000000 -86.512000000000000 11962
Mon Apr 04 00:00:00 GMT 2011 hwiebke Tulip poplar Liriodendron tulipifera First Leaf 39.130000000000000 -86.350000000000000 12118
Wed Apr 13 00:00:00 GMT 2011 hwiebke Tulip poplar Liriodendron tulipifera All Leaves Unfolded 39.130000000000000 -86.350000000000000 12119
Sat Apr 09 00:00:00 GMT 2011 ausima Tulip poplar Liriodendron tulipifera Leaves Unfolding (Early) 39.018800000000000 -77.072500000000000 12147
Mon Apr 18 00:00:00 GMT 2011 ausima Tulip poplar Liriodendron tulipifera Leaves Unfolding (Middle) 39.018800000000000 -77.072500000000000 12148
Mon Apr 18 00:00:00 GMT 2011 nroney1 Tulip poplar Liriodendron tulipifera First Flower 35.045000000000000 -92.169200000000000 12201
Wed Apr 27 00:00:00 GMT 2011 nroney1 Tulip poplar Liriodendron tulipifera Full Flower 35.045000000000000 -92.169200000000000 12238
Sun May 01 00:00:00 GMT 2011 ausima Tulip poplar Liriodendron tulipifera Flowers (Middle) 39.018800000000000 -77.072500000000000 12267
Sat Apr 23 00:00:00 GMT 2011 ausima Tulip poplar Liriodendron tulipifera Flowers (Early) 39.018800000000000 -77.072500000000000 12265
Fri May 13 00:00:00 GMT 2011 nroney1 Tulip poplar Liriodendron tulipifera First Ripe Fruit 35.045000000000000 -92.169200000000000 12471
Wed Apr 06 00:00:00 GMT 2011 KShaw Tulip poplar Liriodendron tulipifera First Leaf 38.926500000000000 -77.339500000000000 12986
Thu Apr 14 00:00:00 GMT 2011 KShaw Tulip poplar Liriodendron tulipifera All Leaves Unfolded 38.926500000000000 -77.339500000000000 12987
Thu May 05 00:00:00 GMT 2011 KShaw Tulip poplar Liriodendron tulipifera First Flower 38.926500000000000 -77.339500000000000 12988
Tue May 10 00:00:00 GMT 2011 KShaw Tulip poplar Liriodendron tulipifera Full Flower 38.926500000000000 -77.339500000000000 12989
Tue Mar 22 00:00:00 GMT 2011 SusannahPrindle Tulip poplar Liriodendron tulipifera First Leaf 39.096700000000000 -77.023900000000000 13065
Thu Mar 31 00:00:00 GMT 2011 SusannahPrindle Tulip poplar Liriodendron tulipifera All Leaves Unfolded 39.096700000000000 -77.023900000000000 13066
Thu May 12 00:00:00 GMT 2011 SusannahPrindle Tulip poplar Liriodendron tulipifera First Flower 39.096700000000000 -77.023900000000000 13067
Sun May 22 00:00:00 GMT 2011 SusannahPrindle Tulip poplar Liriodendron tulipifera Full Flower 39.096700000000000 -77.023900000000000 13068
Wed Sep 21 00:00:00 GMT 2011 dennisw Tulip poplar Liriodendron tulipifera Flowers (Late) 34.069400000000000 -118.442000000000000 13369
Sat Mar 26 00:00:00 GMT 2011 srulison Tulip poplar Liriodendron tulipifera First Leaf 37.540000000000000 -75.920000000000000 13645
Wed Apr 06 00:00:00 GMT 2011 srulison Tulip poplar Liriodendron tulipifera All Leaves Unfolded 37.540000000000000 -75.920000000000000 13646
Tue Oct 18 00:00:00 GMT 2011 katherinefogarty@comcast.net_EnvSci2011_reporter5 Tulip poplar Liriodendron tulipifera All Leaves Unfolded 42.315800000000000 -71.083200000000000 13915
Wed Nov 02 00:00:00 GMT 2011 katherinefogarty@comcast.net_EnvSci2011_reporter5 Tulip poplar Liriodendron tulipifera 50% Color 42.315800000000000 -71.083200000000000 13916
Wed Nov 09 00:00:00 GMT 2011 katherinefogarty@comcast.net_EnvSci2011_reporter5 Tulip poplar Liriodendron tulipifera 50% Leaf Fall 42.315800000000000 -71.083200000000000 13917
Sun Oct 23 00:00:00 GMT 2011 SusannahPrindle Tulip poplar Liriodendron tulipifera Full Fruiting 39.096700000000000 -77.023900000000000 13949
Wed Oct 26 00:00:00 GMT 2011 SusannahPrindle Tulip poplar Liriodendron tulipifera 50% Color 39.096700000000000 -77.023900000000000 13950
Sat Nov 12 00:00:00 GMT 2011 SusannahPrindle Tulip poplar Liriodendron tulipifera 50% Leaf Fall 39.096700000000000 -77.023900000000000 13951
Sat Feb 25 00:00:00 GMT 2012 sonyaguidry@yahoo.com Tulip poplar Liriodendron tulipifera First Leaf 29.042400000000000 -80.939500000000000 14123
Tue Apr 05 00:00:00 GMT 2011 SusannahPrindle Tulip poplar Liriodendron tulipifera First Leaf 39.066800000000000 -76.996900000000000 14139
Thu Apr 14 00:00:00 GMT 2011 SusannahPrindle Tulip poplar Liriodendron tulipifera All Leaves Unfolded 39.066800000000000 -76.996900000000000 14140
Thu Oct 27 00:00:00 GMT 2011 SusannahPrindle Tulip poplar Liriodendron tulipifera 50% Color 39.066800000000000 -76.996900000000000 14142
Tue Nov 08 00:00:00 GMT 2011 SusannahPrindle Tulip poplar Liriodendron tulipifera 50% Leaf Fall 39.066800000000000 -76.996900000000000 14143
Mon May 02 00:00:00 GMT 2011 SusannahPrindle Tulip poplar Liriodendron tulipifera Full Flower 39.066800000000000 -76.996900000000000 14141
Sun Mar 11 00:00:00 GMT 2012 shelleyhr Tulip poplar Liriodendron tulipifera Leaves Unfolding (Early) 41.597400000000000 -85.874600000000000 14205
Wed Mar 14 00:00:00 GMT 2012 prairieridge Tulip poplar Liriodendron tulipifera Leaves Unfolding (Early) 35.810100000000000 -78.715100000000000 14254
Fri Apr 29 00:00:00 GMT 2011 joenesgarden Tulip poplar Liriodendron tulipifera First Leaf 41.452700000000000 -72.375700000000000 14383
Fri May 06 00:00:00 GMT 2011 joenesgarden Tulip poplar Liriodendron tulipifera All Leaves Unfolded 41.452700000000000 -72.375700000000000 14384
Wed May 25 00:00:00 GMT 2011 joenesgarden Tulip poplar Liriodendron tulipifera First Flower 41.452700000000000 -72.375700000000000 14385
Fri Mar 23 00:00:00 GMT 2012 Steve Benedict Tulip poplar Liriodendron tulipifera First Leaf 43.022500000000000 -77.060200000000000 14450
Tue Mar 20 00:00:00 GMT 2012 MikeB45 Tulip poplar Liriodendron tulipifera First Leaf 39.640700000000000 -78.089600000000000 14457
Sun Mar 25 00:00:00 GMT 2012 MikeB45 Tulip poplar Liriodendron tulipifera All Leaves Unfolded 39.640700000000000 -78.089600000000000 14458
Sun Mar 25 00:00:00 GMT 2012 Dennis2sheds Tulip poplar Liriodendron tulipifera Leaves Unfolding (Early) 34.717100000000000 -83.980100000000000 14500
Mon Mar 19 00:00:00 GMT 2012 tuckerasso Tulip poplar Liriodendron tulipifera First Leaf 37.231600000000000 -76.663600000000000 14700
Tue Mar 27 00:00:00 GMT 2012 tuckerasso Tulip poplar Liriodendron tulipifera All Leaves Unfolded 37.231600000000000 -76.663600000000000 14701
Tue Mar 20 00:00:00 GMT 2012 mebrown Tulip poplar Liriodendron tulipifera First Leaf 36.085700000000000 -79.501200000000000 14726
Tue Mar 27 00:00:00 GMT 2012 mebrown Tulip poplar Liriodendron tulipifera All Leaves Unfolded 36.085700000000000 -79.501200000000000 14727
Sat Mar 31 00:00:00 GMT 2012 tuckerasso Tulip poplar Liriodendron tulipifera First Flower 37.231600000000000 -76.663600000000000 14743
Tue Apr 03 00:00:00 GMT 2012 tuckerasso Tulip poplar Liriodendron tulipifera Full Flower 37.231600000000000 -76.663600000000000 14744
Sat Mar 31 00:00:00 GMT 2012 MickeyJo Tulip poplar Liriodendron tulipifera First Flower 35.949100000000000 -79.050500000000000 14717
Sun Apr 08 00:00:00 GMT 2012 MickeyJo Tulip poplar Liriodendron tulipifera Full Flower 35.949100000000000 -79.050500000000000 14842
Tue Apr 17 00:00:00 GMT 2012 lduncan Tulip poplar Liriodendron tulipifera Leaves Unfolding (Middle) 34.674100000000000 -82.822800000000000 15192
Fri Apr 27 00:00:00 GMT 2012 baddelson Tulip poplar Liriodendron tulipifera Full Flower 38.571400000000000 -90.376400000000000 15302
Sat Apr 28 00:00:00 GMT 2012 Georgew Tulip poplar Liriodendron tulipifera Leaves Unfolding (Late) 42.612400000000000 -70.848400000000000 15331
Wed May 02 00:00:00 GMT 2012 katherinefogarty@comcast.net_EnvSci2011_reporter5 Tulip poplar Liriodendron tulipifera 50% Color 42.315800000000000 -71.083200000000000 15677
Wed Mar 21 00:00:00 GMT 2012 katherinefogarty@comcast.net_EnvSci2011_reporter5 Tulip poplar Liriodendron tulipifera Full Flower 42.315800000000000 -71.083200000000000 15674
Wed Apr 04 00:00:00 GMT 2012 katherinefogarty@comcast.net_EnvSci2011_reporter5 Tulip poplar Liriodendron tulipifera First Ripe Fruit 42.315800000000000 -71.083200000000000 15675
Thu Nov 15 00:00:00 GMT 2012 katherinefogarty@comcast.net_EnvSci2011_reporter5 Tulip poplar Liriodendron tulipifera First Flower 42.315800000000000 -71.083200000000000 15673
Thu Mar 08 00:00:00 GMT 2012 katherinefogarty@comcast.net_EnvSci2011_reporter5 Tulip poplar Liriodendron tulipifera All Leaves Unfolded 42.315800000000000 -71.083200000000000 15672
Thu Oct 25 00:00:00 GMT 2012 katherinefogarty@comcast.net_EnvSci2011_reporter5 Tulip poplar Liriodendron tulipifera First Leaf 42.315800000000000 -71.083200000000000 15671
Wed Apr 11 00:00:00 GMT 2012 katherinefogarty@comcast.net_EnvSci2011_reporter5 Tulip poplar Liriodendron tulipifera Full Fruiting 42.315800000000000 -71.083200000000000 15678
Wed Apr 25 00:00:00 GMT 2012 katherinefogarty@comcast.net_EnvSci2011_reporter5 Tulip poplar Liriodendron tulipifera 50% Leaf Fall 42.315800000000000 -71.083200000000000 15676
Fri Mar 16 00:00:00 GMT 2012 SusannahPrindle Tulip poplar Liriodendron tulipifera First Leaf 39.096700000000000 -77.023900000000000 16209
Tue Mar 20 00:00:00 GMT 2012 SusannahPrindle Tulip poplar Liriodendron tulipifera All Leaves Unfolded 39.096700000000000 -77.023900000000000 16210
Tue Apr 17 00:00:00 GMT 2012 SusannahPrindle Tulip poplar Liriodendron tulipifera First Flower 39.096700000000000 -77.023900000000000 16211
Sat Mar 17 00:00:00 GMT 2012 SusannahPrindle Tulip poplar Liriodendron tulipifera First Leaf 39.066800000000000 -76.996900000000000 16219
Sat Mar 24 00:00:00 GMT 2012 SusannahPrindle Tulip poplar Liriodendron tulipifera All Leaves Unfolded 39.066800000000000 -76.996900000000000 16220
Sun Apr 22 00:00:00 GMT 2012 SusannahPrindle Tulip poplar Liriodendron tulipifera First Flower 39.066800000000000 -76.996900000000000 16221
Sun Apr 29 00:00:00 GMT 2012 SusannahPrindle Tulip poplar Liriodendron tulipifera Full Flower 39.066800000000000 -76.996900000000000 16222
Wed Aug 29 00:00:00 GMT 2012 RangerJean Tulip poplar Liriodendron tulipifera All Leaves Unfolded 42.383100000000000 -71.142700000000000 16432
Tue Aug 28 00:00:00 GMT 2012 macburst Tulip poplar Liriodendron tulipifera Fruit (Middle) 41.847400000000000 -79.139300000000000 16433
Tue Sep 04 00:00:00 GMT 2012 brendan.butash Tulip poplar Liriodendron tulipifera Leaves Changing Color (Early) 42.000000000000000 -83.000000000000000 16446
Wed Sep 05 00:00:00 GMT 2012 brendan.butash Tulip poplar Liriodendron tulipifera Leaves Changing Color (Early) 42.000000000000000 -83.000000000000000 16534
Wed Sep 05 00:00:00 GMT 2012 mari Tulip poplar Liriodendron tulipifera Fruit (Late) 35.592100000000000 -84.084200000000000 16527
Thu Sep 13 00:00:00 GMT 2012 mari Tulip poplar Liriodendron tulipifera Leaves Changing Color (Early) 35.592100000000000 -84.084200000000000 16594
Fri Sep 14 00:00:00 GMT 2012 brooke_michelle Tulip poplar Liriodendron tulipifera 50% Color 34.620000000000000 -83.050000000000000 16659
Fri Sep 14 00:00:00 GMT 2012 brooke_michelle Tulip poplar Liriodendron tulipifera 50% Leaf Fall 34.620000000000000 -83.050000000000000 16660
Fri Sep 14 00:00:00 GMT 2012 brooke_hope Tulip poplar Liriodendron tulipifera 50% Color 34.610000000000000 -83.050000000000000 16661
Fri Sep 14 00:00:00 GMT 2012 brooke_hope Tulip poplar Liriodendron tulipifera 50% Leaf Fall 34.610000000000000 -83.050000000000000 16662
Fri Sep 14 00:00:00 GMT 2012 sterlinhaymon Tulip poplar Liriodendron tulipifera 50% Color 34.600000000000000 -83.050000000000000 16663
Fri Sep 14 00:00:00 GMT 2012 zachpcollins@hotmail.com Tulip poplar Liriodendron tulipifera 50% Color 34.620000000000000 -83.050000000000000 16654
Fri Sep 14 00:00:00 GMT 2012 zachpcollins@hotmail.com Tulip poplar Liriodendron tulipifera 50% Leaf Fall 34.620000000000000 -83.050000000000000 16655
Fri Sep 14 00:00:00 GMT 2012 jaronlivingston Tulip poplar Liriodendron tulipifera 50% Color 39.600000000000000 -83.050000000000000 16668
Fri Sep 14 00:00:00 GMT 2012 jaronlivingston Tulip poplar Liriodendron tulipifera 50% Leaf Fall 39.600000000000000 -83.050000000000000 16669
Fri Sep 14 00:00:00 GMT 2012 zachpcollins@hotmail.com Tulip poplar Liriodendron tulipifera 50% Color 34.620000000000000 -83.050000000000000 16652
Fri Sep 14 00:00:00 GMT 2012 zachpcollins@hotmail.com Tulip poplar Liriodendron tulipifera 50% Leaf Fall 34.620000000000000 -83.050000000000000 16653
Tue Sep 18 00:00:00 GMT 2012 JennyOwens Tulip poplar Liriodendron tulipifera Full Fruiting 34.610000000000000 -83.050000000000000 16635
Tue Sep 18 00:00:00 GMT 2012 3cddriver Tulip poplar Liriodendron tulipifera Leaves Changing Color (Early) 34.620000000000000 -83.050000000000000 16646
Fri Sep 14 00:00:00 GMT 2012 4hrluker Tulip poplar Liriodendron tulipifera 50% Color 36.220000000000000 -83.060000000000000 16637
Tue Sep 18 00:00:00 GMT 2012 3cddriver Tulip poplar Liriodendron tulipifera Leaves Unfolding (Early) 39.984700000000000 -105.268000000000000 16638
Fri Sep 14 00:00:00 GMT 2012 wesley Tulip poplar Liriodendron tulipifera 50% Leaf Fall 34.620000000000000 -83.050000000000000 16643
Fri Sep 14 00:00:00 GMT 2012 5caholbrooks Tulip poplar Liriodendron tulipifera 50% Leaf Fall 34.620000000000000 -83.050000000000000 16644
Fri Sep 14 00:00:00 GMT 2012 4LTWhitman Tulip poplar Liriodendron tulipifera Leaves Changing Color (Early) 34.620000000000000 -83.050000000000000 16651
Tue Sep 18 00:00:00 GMT 2012 3cddriver Tulip poplar Liriodendron tulipifera Leaves Unfolding (Early) 39.984700000000000 -105.268000000000000 16639
Fri Sep 14 00:00:00 GMT 2012 5zbhunter Tulip poplar Liriodendron tulipifera Leaves Changing Color (Early) 34.620000000000000 -83.050000000000000 16645
Thu Sep 13 00:00:00 GMT 2012 katelan cockman Tulip poplar Liriodendron tulipifera 50% Color 34.610000000000000 -83.050000000000000 16673
Thu Sep 13 00:00:00 GMT 2012 katelan cockman Tulip poplar Liriodendron tulipifera 50% Leaf Fall 34.610000000000000 -83.050000000000000 16674
Thu Sep 13 00:00:00 GMT 2012 cecilcarnes Tulip poplar Liriodendron tulipifera 50% Color 34.610000000000000 -83.050000000000000 16675
Thu Sep 13 00:00:00 GMT 2012 cecilcarnes Tulip poplar Liriodendron tulipifera 50% Leaf Fall 34.610000000000000 -83.050000000000000 16676
Tue Sep 11 00:00:00 GMT 2012 brianna7frady Tulip poplar Liriodendron tulipifera 50% Color 34.600000000000000 -83.100000000000000 16720
Tue Sep 11 00:00:00 GMT 2012 brianna7frady Tulip poplar Liriodendron tulipifera 50% Leaf Fall 34.600000000000000 -83.100000000000000 16721
Sat Jan 07 00:00:00 GMT 2012 kennedy smith Tulip poplar Liriodendron tulipifera First Leaf 34.620000000000000 -83.050000000000000 16677
Sat Jan 14 00:00:00 GMT 2012 kennedy smith Tulip poplar Liriodendron tulipifera All Leaves Unfolded 34.620000000000000 -83.050000000000000 16678
Thu Jan 19 00:00:00 GMT 2012 kennedy smith Tulip poplar Liriodendron tulipifera First Flower 34.620000000000000 -83.050000000000000 16679
Fri Feb 24 00:00:00 GMT 2012 kennedy smith Tulip poplar Liriodendron tulipifera Full Flower 34.620000000000000 -83.050000000000000 16680
Sun Mar 25 00:00:00 GMT 2012 kennedy smith Tulip poplar Liriodendron tulipifera First Ripe Fruit 34.620000000000000 -83.050000000000000 16681
Tue Apr 10 00:00:00 GMT 2012 kennedy smith Tulip poplar Liriodendron tulipifera Full Fruiting 34.620000000000000 -83.050000000000000 16682
Sat Sep 15 00:00:00 GMT 2012 kennedy smith Tulip poplar Liriodendron tulipifera 50% Color 34.620000000000000 -83.050000000000000 16683
Tue Sep 25 00:00:00 GMT 2012 kennedy smith Tulip poplar Liriodendron tulipifera 50% Leaf Fall 34.620000000000000 -83.050000000000000 16684
Sun Jan 01 00:00:00 GMT 2012 westoak2014 Tulip poplar Liriodendron tulipifera First Leaf 34.620000000000000 -83.050000000000000 16702
Thu Feb 02 00:00:00 GMT 2012 westoak2014 Tulip poplar Liriodendron tulipifera All Leaves Unfolded 34.620000000000000 -83.050000000000000 16703
Sat Mar 03 00:00:00 GMT 2012 westoak2014 Tulip poplar Liriodendron tulipifera First Flower 34.620000000000000 -83.050000000000000 16704
Wed Apr 04 00:00:00 GMT 2012 westoak2014 Tulip poplar Liriodendron tulipifera Full Flower 34.620000000000000 -83.050000000000000 16705
Sat May 05 00:00:00 GMT 2012 westoak2014 Tulip poplar Liriodendron tulipifera First Ripe Fruit 34.620000000000000 -83.050000000000000 16706
Wed Jun 06 00:00:00 GMT 2012 westoak2014 Tulip poplar Liriodendron tulipifera Full Fruiting 34.620000000000000 -83.050000000000000 16707
Sat Jul 07 00:00:00 GMT 2012 westoak2014 Tulip poplar Liriodendron tulipifera 50% Color 34.620000000000000 -83.050000000000000 16708
Wed Aug 08 00:00:00 GMT 2012 westoak2014 Tulip poplar Liriodendron tulipifera 50% Leaf Fall 34.620000000000000 -83.050000000000000 16709
Wed Feb 01 00:00:00 GMT 2012 Colton Hare Tulip poplar Liriodendron tulipifera First Leaf 34.620000000000000 -83.050000000000000 16685
Sun Feb 12 00:00:00 GMT 2012 Colton Hare Tulip poplar Liriodendron tulipifera All Leaves Unfolded 34.620000000000000 -83.050000000000000 16686
Sun Mar 25 00:00:00 GMT 2012 Colton Hare Tulip poplar Liriodendron tulipifera Full Flower 34.620000000000000 -83.050000000000000 16687
Fri Jul 13 00:00:00 GMT 2012 Colton Hare Tulip poplar Liriodendron tulipifera First Ripe Fruit 34.620000000000000 -83.050000000000000 16688
Tue Feb 28 00:00:00 GMT 2012 Colton Hare Tulip poplar Liriodendron tulipifera Full Fruiting 34.620000000000000 -83.050000000000000 16689
Wed Sep 19 00:00:00 GMT 2012 Colton Hare Tulip poplar Liriodendron tulipifera 50% Color 34.620000000000000 -83.050000000000000 16690
Wed Sep 19 00:00:00 GMT 2012 Colton Hare Tulip poplar Liriodendron tulipifera 50% Leaf Fall 34.620000000000000 -83.050000000000000 16691
Tue Sep 11 00:00:00 GMT 2012 andy lee Tulip poplar Liriodendron tulipifera 50% Color 34.600000000000000 -83.100000000000000 16722
Tue Sep 11 00:00:00 GMT 2012 andy lee Tulip poplar Liriodendron tulipifera 50% Leaf Fall 34.600000000000000 -83.100000000000000 16723
Sun Mar 25 00:00:00 GMT 2012 surahdowell Tulip poplar Liriodendron tulipifera First Leaf 34.610000000000000 -83.050000000000000 16712
Thu Sep 13 00:00:00 GMT 2012 surahdowell Tulip poplar Liriodendron tulipifera 50% Color 34.610000000000000 -83.050000000000000 16713
Thu Sep 20 00:00:00 GMT 2012 mari Tulip poplar Liriodendron tulipifera Leaves Unfolding (Late) 35.592100000000000 -84.084200000000000 16731
Fri Sep 28 00:00:00 GMT 2012 mari Tulip poplar Liriodendron tulipifera Leaves Changing Color (Early) 35.592100000000000 -84.084200000000000 16756
Thu Oct 04 00:00:00 GMT 2012 mari Tulip poplar Liriodendron tulipifera Leaves Changing Color (Early) 35.592100000000000 -84.084200000000000 16782
Fri Oct 19 00:00:00 GMT 2012 mari Tulip poplar Liriodendron tulipifera Leaves Dropping (Middle) 35.592100000000000 -84.084200000000000 17038
Fri Nov 02 00:00:00 GMT 2012 mari Tulip poplar Liriodendron tulipifera Leaves Dropping (Late) 35.592100000000000 -84.084200000000000 17449
Sat Mar 17 00:00:00 GMT 2012 srulison Tulip poplar Liriodendron tulipifera First Leaf 37.540000000000000 -75.920000000000000 17485
Sun Nov 11 00:00:00 GMT 2012 PBBtest1107 Tulip poplar Liriodendron tulipifera Leaves Dropping (Late) 40.000000000000000 -105.000000000000000 17521
Sat Nov 17 00:00:00 GMT 2012 jos7 Tulip poplar Liriodendron tulipifera Leaves Dropping (Middle) 47.609900000000000 -122.180000000000000 17547
Sat Dec 01 00:00:00 GMT 2012 jos7 Tulip poplar Liriodendron tulipifera Leaves Dropping (Late) 47.609900000000000 -122.180000000000000 17577
Thu Oct 18 00:00:00 GMT 2012 tuckerasso Tulip poplar Liriodendron tulipifera 50% Color 37.231600000000000 -76.663600000000000 17654
Sat Dec 01 00:00:00 GMT 2012 tuckerasso Tulip poplar Liriodendron tulipifera 50% Leaf Fall 37.231600000000000 -76.663600000000000 17655
Fri Mar 16 00:00:00 GMT 2012 SusannahPrindle Tulip poplar Liriodendron tulipifera First Leaf 39.096700000000000 -77.023900000000000 17710
Tue Mar 20 00:00:00 GMT 2012 SusannahPrindle Tulip poplar Liriodendron tulipifera All Leaves Unfolded 39.096700000000000 -77.023900000000000 17711
Tue Apr 17 00:00:00 GMT 2012 SusannahPrindle Tulip poplar Liriodendron tulipifera First Flower 39.096700000000000 -77.023900000000000 17712
Thu Apr 26 00:00:00 GMT 2012 SusannahPrindle Tulip poplar Liriodendron tulipifera Full Flower 39.096700000000000 -77.023900000000000 17713
Sun Oct 21 00:00:00 GMT 2012 SusannahPrindle Tulip poplar Liriodendron tulipifera 50% Color 39.096700000000000 -77.023900000000000 17714
Sat Nov 03 00:00:00 GMT 2012 SusannahPrindle Tulip poplar Liriodendron tulipifera 50% Leaf Fall 39.096700000000000 -77.023900000000000 17715
Sat Mar 17 00:00:00 GMT 2012 SusannahPrindle Tulip poplar Liriodendron tulipifera First Leaf 39.066800000000000 -76.996900000000000 17727
Sat Mar 24 00:00:00 GMT 2012 SusannahPrindle Tulip poplar Liriodendron tulipifera All Leaves Unfolded 39.066800000000000 -76.996900000000000 17728
Sun Apr 22 00:00:00 GMT 2012 SusannahPrindle Tulip poplar Liriodendron tulipifera First Flower 39.066800000000000 -76.996900000000000 17729
Sun Apr 29 00:00:00 GMT 2012 SusannahPrindle Tulip poplar Liriodendron tulipifera Full Flower 39.066800000000000 -76.996900000000000 17730
Sat Oct 27 00:00:00 GMT 2012 SusannahPrindle Tulip poplar Liriodendron tulipifera Full Fruiting 39.066800000000000 -76.996900000000000 17731
Fri Oct 26 00:00:00 GMT 2012 SusannahPrindle Tulip poplar Liriodendron tulipifera 50% Leaf Fall 39.066800000000000 -76.996900000000000 17732
Wed Mar 27 00:00:00 GMT 2013 ptuley Tulip poplar Liriodendron tulipifera Leaves Unfolding (Early) 34.504500000000000 -97.119500000000000 18365
Wed Apr 03 00:00:00 GMT 2013 muziguo Tulip poplar Liriodendron tulipifera Leaves Unfolding (Early) 39.165300000000000 -86.526400000000000 18484
Mon Apr 08 00:00:00 GMT 2013 adfitzgerald@woodlawnschool.org_Env_Studies_2013_reporter9 Tulip poplar Liriodendron tulipifera First Leaf 35.543200000000000 -80.847300000000000 18789
Thu Apr 11 00:00:00 GMT 2013 adfitzgerald@woodlawnschool.org_Env_Studies_2013_reporter9 Tulip poplar Liriodendron tulipifera All Leaves Unfolded 35.543200000000000 -80.847300000000000 18790
Tue Jan 08 00:00:00 GMT 2013 adfitzgerald@woodlawnschool.org_Env_Studies_2013_reporter9 Tulip poplar Liriodendron tulipifera Bud Burst 35.543200000000000 -80.847300000000000 18807
Tue Jan 08 00:00:00 GMT 2013 adfitzgerald@woodlawnschool.org_Env_Studies_2013_reporter1 Tulip poplar Liriodendron tulipifera Bud Burst 35.543200000000000 -80.847300000000000 18811
Mon Apr 08 00:00:00 GMT 2013 adfitzgerald@woodlawnschool.org_Env_Studies_2013_reporter1 Tulip poplar Liriodendron tulipifera First Leaf 35.543200000000000 -80.847300000000000 18812
Thu Apr 11 00:00:00 GMT 2013 adfitzgerald@woodlawnschool.org_Env_Studies_2013_reporter1 Tulip poplar Liriodendron tulipifera All Leaves Unfolded 35.543200000000000 -80.847300000000000 18813
Mon Apr 08 00:00:00 GMT 2013 adfitzgerald@woodlawnschool.org_Env_Studies_2013_reporter10 Tulip poplar Liriodendron tulipifera Bud Burst 35.543200000000000 -80.847300000000000 18819
Thu Apr 11 00:00:00 GMT 2013 adfitzgerald@woodlawnschool.org_Env_Studies_2013_reporter10 Tulip poplar Liriodendron tulipifera First Leaf 35.543200000000000 -80.847300000000000 18820
Sat Apr 13 00:00:00 GMT 2013 jerribitner Tulip poplar Liriodendron tulipifera Bud Burst 40.018100000000000 -76.880000000000000 18921
Sat Apr 13 00:00:00 GMT 2013 ncmns Tulip poplar Liriodendron tulipifera Leaves Unfolding (Middle) 35.811700000000000 -78.713900000000000 19377
Sat Mar 30 00:00:00 GMT 2013 ncmns Tulip poplar Liriodendron tulipifera Leaves Unfolding (Early) 35.811700000000000 -78.713900000000000 19370
Sat Apr 27 00:00:00 GMT 2013 ncmns Tulip poplar Liriodendron tulipifera Leaves Unfolding (Late) 35.811700000000000 -78.713900000000000 19386
Tue Apr 09 00:00:00 GMT 2013 Dennis2sheds Tulip poplar Liriodendron tulipifera Bud Burst 34.717100000000000 -83.980100000000000 19652
Tue Apr 16 00:00:00 GMT 2013 Dennis2sheds Tulip poplar Liriodendron tulipifera First Leaf 34.717100000000000 -83.980100000000000 19653
Tue May 07 00:00:00 GMT 2013 bmatthews Tulip poplar Liriodendron tulipifera Flowers (Middle) 36.147500000000000 -86.775200000000000 20004
Tue May 07 00:00:00 GMT 2013 bmatthews Tulip poplar Liriodendron tulipifera Full Flower 36.146600000000000 -86.775400000000000 20005
Thu May 09 00:00:00 GMT 2013 jerribitner Tulip poplar Liriodendron tulipifera All Leaves Unfolded 40.018100000000000 -76.880000000000000 20157
Wed Apr 10 00:00:00 GMT 2013 katherinefogarty@comcast.net_Ms._Fogarty's_Env_Sci_reporter4 Tulip poplar Liriodendron tulipifera Bud Burst 41.316200000000000 -71.084500000000000 20324
Wed May 01 00:00:00 GMT 2013 katherinefogarty@comcast.net_Ms._Fogarty's_Env_Sci_reporter4 Tulip poplar Liriodendron tulipifera First Leaf 41.316200000000000 -71.084500000000000 20325
Fri Nov 16 00:00:00 GMT 2012 katherinefogarty@comcast.net_Ms._Fogarty's_Env_Sci_reporter4 Tulip poplar Liriodendron tulipifera All Leaves Unfolded 41.316200000000000 -71.084500000000000 20326
Mon May 06 00:00:00 GMT 2013 katherinefogarty@comcast.net_Ms._Fogarty's_Env_Sci_reporter4 Tulip poplar Liriodendron tulipifera First Flower 41.316200000000000 -71.084500000000000 20327
Mon May 13 00:00:00 GMT 2013 katherinefogarty@comcast.net_Ms._Fogarty's_Env_Sci_reporter4 Tulip poplar Liriodendron tulipifera Full Flower 41.316200000000000 -71.084500000000000 20328
Tue Oct 23 00:00:00 GMT 2012 katherinefogarty@comcast.net_Ms._Fogarty's_Env_Sci_reporter4 Tulip poplar Liriodendron tulipifera 50% Color 41.316200000000000 -71.084500000000000 20329
Fri Nov 02 00:00:00 GMT 2012 katherinefogarty@comcast.net_Ms._Fogarty's_Env_Sci_reporter4 Tulip poplar Liriodendron tulipifera 50% Leaf Fall 41.316200000000000 -71.084500000000000 20330
Fri May 24 00:00:00 GMT 2013 jerribitner Tulip poplar Liriodendron tulipifera Full Flower 40.018100000000000 -76.880000000000000 20722
Wed Apr 10 00:00:00 GMT 2013 Angelyn Tulip poplar Liriodendron tulipifera Bud Burst 35.619100000000000 -82.765100000000000 20752
Wed Apr 17 00:00:00 GMT 2013 Angelyn Tulip poplar Liriodendron tulipifera First Leaf 35.619100000000000 -82.765100000000000 20753
Thu Apr 25 00:00:00 GMT 2013 Angelyn Tulip poplar Liriodendron tulipifera All Leaves Unfolded 35.619100000000000 -82.765100000000000 20754
Mon May 20 00:00:00 GMT 2013 Angelyn Tulip poplar Liriodendron tulipifera Full Flower 35.619100000000000 -82.765100000000000 20755
Mon Jul 01 00:00:00 GMT 2013 plegendre Tulip poplar Liriodendron tulipifera Leaves Unfolding (Late) 41.709700000000000 -70.167600000000000 21435
Mon Jul 01 00:00:00 GMT 2013 plegendre Tulip poplar Liriodendron tulipifera Leaves Unfolding (Late) 41.709700000000000 -70.167600000000000 21436
Sun Jul 14 00:00:00 GMT 2013 clapp Tulip poplar Liriodendron tulipifera Fruit (Middle) 35.381800000000000 -83.196500000000000 21538
Sat Mar 30 00:00:00 GMT 2013 reinsteinwoods Tulip poplar Liriodendron tulipifera Bud Burst 42.886600000000000 -78.718100000000000 21586
Sat Apr 27 00:00:00 GMT 2013 reinsteinwoods Tulip poplar Liriodendron tulipifera First Leaf 42.886600000000000 -78.718100000000000 21587
Sun May 05 00:00:00 GMT 2013 reinsteinwoods Tulip poplar Liriodendron tulipifera All Leaves Unfolded 42.886600000000000 -78.718100000000000 21588
Mon Apr 08 00:00:00 GMT 2013 SusannahPrindle Tulip poplar Liriodendron tulipifera First Leaf 39.096700000000000 -77.023900000000000 21754
Wed Apr 10 00:00:00 GMT 2013 SusannahPrindle Tulip poplar Liriodendron tulipifera All Leaves Unfolded 39.096700000000000 -77.023900000000000 21755
Fri May 17 00:00:00 GMT 2013 SusannahPrindle Tulip poplar Liriodendron tulipifera First Flower 39.096700000000000 -77.023900000000000 21756
Wed May 22 00:00:00 GMT 2013 SusannahPrindle Tulip poplar Liriodendron tulipifera Full Flower 39.096700000000000 -77.023900000000000 21757
Tue Apr 09 00:00:00 GMT 2013 SusannahPrindle Tulip poplar Liriodendron tulipifera First Leaf 39.066800000000000 -76.996900000000000 21834
Thu Apr 11 00:00:00 GMT 2013 SusannahPrindle Tulip poplar Liriodendron tulipifera All Leaves Unfolded 39.066800000000000 -76.996900000000000 21835
Sun May 19 00:00:00 GMT 2013 SusannahPrindle Tulip poplar Liriodendron tulipifera First Flower 39.066800000000000 -76.996900000000000 21836
Sun May 19 00:00:00 GMT 2013 SusannahPrindle Tulip poplar Liriodendron tulipifera Full Flower 39.066800000000000 -76.996900000000000 21837
Mon Oct 07 00:00:00 GMT 2013 Susan Tulip poplar Liriodendron tulipifera Leaves Dropping (Late) 37.522400000000000 -77.947200000000000 22513
Wed Sep 04 00:00:00 GMT 2013 marcepat Tulip poplar Liriodendron tulipifera 50% Color 39.168500000000000 -86.529800000000000 23033
Wed Nov 06 00:00:00 GMT 2013 marcepat Tulip poplar Liriodendron tulipifera 50% Leaf Fall 39.168500000000000 -86.529800000000000 23034
Sat Nov 02 00:00:00 GMT 2013 ncmns Tulip poplar Liriodendron tulipifera Leaves Changing Color (Middle) 35.811700000000000 -78.713900000000000 23055
Sat Oct 12 00:00:00 GMT 2013 ncmns Tulip poplar Liriodendron tulipifera Leaves Dropping (Early) 35.811700000000000 -78.713900000000000 23060
Sat Nov 09 00:00:00 GMT 2013 bberry Tulip poplar Liriodendron tulipifera 50% Leaf Fall 40.766600000000000 -73.974900000000000 23144
Sun Sep 15 00:00:00 GMT 2013 ebyeoman Tulip poplar Liriodendron tulipifera 50% Color 39.161500000000000 -86.480700000000000 23604
Sun Oct 20 00:00:00 GMT 2013 ebyeoman Tulip poplar Liriodendron tulipifera 50% Leaf Fall 39.161500000000000 -86.480700000000000 23605
Tue Sep 03 00:00:00 GMT 2013 simonejones Tulip poplar Liriodendron tulipifera Bud Burst 39.170800000000000 -86.512400000000000 23653
Thu Oct 24 00:00:00 GMT 2013 simonejones Tulip poplar Liriodendron tulipifera 50% Color 39.170800000000000 -86.512400000000000 23654
Sun Oct 27 00:00:00 GMT 2013 simonejones Tulip poplar Liriodendron tulipifera 50% Leaf Fall 39.170800000000000 -86.512400000000000 23655
Sun Oct 06 00:00:00 GMT 2013 robinv1_Washington_College_reporter7 Tulip poplar Liriodendron tulipifera Bud Burst 39.219200000000000 -76.069600000000000 24095
Wed Oct 30 00:00:00 GMT 2013 robinv1_Washington_College_reporter7 Tulip poplar Liriodendron tulipifera 50% Color 39.219200000000000 -76.069600000000000 24096
Wed Oct 30 00:00:00 GMT 2013 robinv1_Washington_College_reporter7 Tulip poplar Liriodendron tulipifera 50% Leaf Fall 39.219200000000000 -76.069600000000000 24097
Mon Oct 28 00:00:00 GMT 2013 robinv1_Washington_College_reporter30 Tulip poplar Liriodendron tulipifera 50% Color 39.219200000000000 -76.069600000000000 24183
Mon Nov 18 00:00:00 GMT 2013 robinv1_Washington_College_reporter30 Tulip poplar Liriodendron tulipifera 50% Leaf Fall 39.219200000000000 -76.069600000000000 24184
Mon Oct 14 00:00:00 GMT 2013 robinv1_Washington_College_reporter22 Tulip poplar Liriodendron tulipifera 50% Color 39.219200000000000 -76.069600000000000 24164
Mon Nov 04 00:00:00 GMT 2013 robinv1_Washington_College_reporter22 Tulip poplar Liriodendron tulipifera 50% Leaf Fall 39.219200000000000 -76.069600000000000 24165
Mon Mar 25 00:00:00 GMT 2013 tuckerasso Tulip poplar Liriodendron tulipifera First Leaf 37.231600000000000 -76.663600000000000 24599
Thu Apr 04 00:00:00 GMT 2013 tuckerasso Tulip poplar Liriodendron tulipifera All Leaves Unfolded 37.231600000000000 -76.663600000000000 24600
Sat Apr 13 00:00:00 GMT 2013 tuckerasso Tulip poplar Liriodendron tulipifera First Flower 37.231600000000000 -76.663600000000000 24601
Sun Apr 28 00:00:00 GMT 2013 tuckerasso Tulip poplar Liriodendron tulipifera Full Flower 37.231600000000000 -76.663600000000000 24602
Tue Sep 10 00:00:00 GMT 2013 tuckerasso Tulip poplar Liriodendron tulipifera 50% Color 37.231600000000000 -76.663600000000000 24603
Mon Nov 25 00:00:00 GMT 2013 tuckerasso Tulip poplar Liriodendron tulipifera 50% Leaf Fall 37.231600000000000 -76.663600000000000 24604
Sun Oct 25 00:00:00 GMT 2015 Paul_Weihe Tulip poplar Liriodendron tulipifera Leaves Unfolding (Late) 41.401924000000000 -92.923557000000000 61502
Sun Oct 25 00:00:00 GMT 2015 Paul_Weihe Tulip poplar Liriodendron tulipifera Leaves Changing Color (Middle) 41.401924000000000 -92.923557000000000 61503
Sun Oct 25 00:00:00 GMT 2015 Paul_Weihe Tulip poplar Liriodendron tulipifera Leaves Dropping (Early) 41.401924000000000 -92.923557000000000 61504
Sun Oct 25 00:00:00 GMT 2015 Paul_Weihe Tulip poplar Liriodendron tulipifera Flowers (None) 41.401924000000000 -92.923557000000000 61505
Sun Oct 25 00:00:00 GMT 2015 Paul_Weihe Tulip poplar Liriodendron tulipifera Fruit (None) 41.401924000000000 -92.923557000000000 61506
Fri Oct 16 00:00:00 GMT 2015 SusannahPrindle Tulip poplar Liriodendron tulipifera First Ripe Fruit 39.096700000000000 -77.023900000000000 61571
Sat Oct 24 00:00:00 GMT 2015 SusannahPrindle Tulip poplar Liriodendron tulipifera Full Fruiting 39.096700000000000 -77.023900000000000 61572
Mon Oct 26 00:00:00 GMT 2015 SusannahPrindle Tulip poplar Liriodendron tulipifera 50% Color 39.096700000000000 -77.023900000000000 61573
Tue Oct 20 00:00:00 GMT 2015 SusannahPrindle Tulip poplar Liriodendron tulipifera 50% Leaf Fall 39.096700000000000 -77.023900000000000 61574
Fri Oct 16 00:00:00 GMT 2015 SusannahPrindle Tulip poplar Liriodendron tulipifera First Ripe Fruit 39.096700000000000 -77.023900000000000 61575
Sat Oct 24 00:00:00 GMT 2015 SusannahPrindle Tulip poplar Liriodendron tulipifera Full Fruiting 39.096700000000000 -77.023900000000000 61576
Fri Oct 30 00:00:00 GMT 2015 SusannahPrindle Tulip poplar Liriodendron tulipifera 50% Color 39.096700000000000 -77.023900000000000 61577
Tue Oct 20 00:00:00 GMT 2015 SusannahPrindle Tulip poplar Liriodendron tulipifera 50% Leaf Fall 39.096700000000000 -77.023900000000000 61578
Fri Apr 03 00:00:00 GMT 2015 tuckerasso Tulip poplar Liriodendron tulipifera First Leaf 37.231600000000000 -76.663600000000000 61681
Tue Apr 07 00:00:00 GMT 2015 tuckerasso Tulip poplar Liriodendron tulipifera All Leaves Unfolded 37.231600000000000 -76.663600000000000 61682
Wed Apr 22 00:00:00 GMT 2015 tuckerasso Tulip poplar Liriodendron tulipifera First Flower 37.231600000000000 -76.663600000000000 61683
Thu May 07 00:00:00 GMT 2015 tuckerasso Tulip poplar Liriodendron tulipifera Full Flower 37.231600000000000 -76.663600000000000 61684
Tue Oct 13 00:00:00 GMT 2015 tuckerasso Tulip poplar Liriodendron tulipifera First Ripe Fruit 37.231600000000000 -76.663600000000000 61685
Tue Oct 13 00:00:00 GMT 2015 tuckerasso Tulip poplar Liriodendron tulipifera 50% Color 37.231600000000000 -76.663600000000000 61686
Thu Nov 05 00:00:00 GMT 2015 tuckerasso Tulip poplar Liriodendron tulipifera 50% Leaf Fall 37.231600000000000 -76.663600000000000 61687
Thu Feb 04 00:00:00 GMT 2016 kate360 Tulip poplar Liriodendron tulipifera Bud Burst 40.325190000000000 -74.815200000000000 61818
Fri Mar 18 00:00:00 GMT 2016 kelci_adcock Tulip poplar Liriodendron tulipifera Leaves Unfolding (Early) 37.259620000000000 -85.881670000000000 62673
Fri Mar 18 00:00:00 GMT 2016 kelci_adcock Tulip poplar Liriodendron tulipifera Leaves Changing Color (None) 37.259620000000000 -85.881670000000000 62674
Fri Mar 18 00:00:00 GMT 2016 kelci_adcock Tulip poplar Liriodendron tulipifera Leaves Dropping (None) 37.259620000000000 -85.881670000000000 62675
Fri Mar 18 00:00:00 GMT 2016 kelci_adcock Tulip poplar Liriodendron tulipifera Flowers (Early) 37.259620000000000 -85.881670000000000 62676
Fri Mar 18 00:00:00 GMT 2016 kelci_adcock Tulip poplar Liriodendron tulipifera Fruit (None) 37.259620000000000 -85.881670000000000 62677
Fri Mar 18 00:00:00 GMT 2016 Whitney4 Tulip poplar Liriodendron tulipifera Leaves Unfolding (Early) 37.259620000000000 -85.881670000000000 62678
Fri Mar 18 00:00:00 GMT 2016 Whitney4 Tulip poplar Liriodendron tulipifera Leaves Changing Color (None) 37.259620000000000 -85.881670000000000 62679
Fri Mar 18 00:00:00 GMT 2016 Whitney4 Tulip poplar Liriodendron tulipifera Leaves Dropping (None) 37.259620000000000 -85.881670000000000 62680
Fri Mar 18 00:00:00 GMT 2016 Whitney4 Tulip poplar Liriodendron tulipifera Flowers (Early) 37.259620000000000 -85.881670000000000 62681
Fri Mar 18 00:00:00 GMT 2016 Whitney4 Tulip poplar Liriodendron tulipifera Fruit (None) 37.259620000000000 -85.881670000000000 62682
Fri Mar 18 00:00:00 GMT 2016 AutumnRhea98 Tulip poplar Liriodendron tulipifera Leaves Unfolding (Early) 37.259620000000000 -85.881670000000000 62690
Fri Mar 18 00:00:00 GMT 2016 AutumnRhea98 Tulip poplar Liriodendron tulipifera Leaves Changing Color (None) 37.259620000000000 -85.881670000000000 62691
Fri Mar 18 00:00:00 GMT 2016 AutumnRhea98 Tulip poplar Liriodendron tulipifera Leaves Dropping (None) 37.259620000000000 -85.881670000000000 62692
Fri Mar 18 00:00:00 GMT 2016 AutumnRhea98 Tulip poplar Liriodendron tulipifera Flowers (Early) 37.259620000000000 -85.881670000000000 62693
Fri Mar 18 00:00:00 GMT 2016 AutumnRhea98 Tulip poplar Liriodendron tulipifera Fruit (None) 37.259620000000000 -85.881670000000000 62694
Fri Mar 18 00:00:00 GMT 2016 beth7197 Tulip poplar Liriodendron tulipifera Leaves Unfolding (Early) 37.259620000000000 -85.881670000000000 62695
Fri Mar 18 00:00:00 GMT 2016 beth7197 Tulip poplar Liriodendron tulipifera Leaves Changing Color (None) 37.259620000000000 -85.881670000000000 62696
Fri Mar 18 00:00:00 GMT 2016 beth7197 Tulip poplar Liriodendron tulipifera Leaves Dropping (None) 37.259620000000000 -85.881670000000000 62697
Fri Mar 18 00:00:00 GMT 2016 beth7197 Tulip poplar Liriodendron tulipifera Flowers (Early) 37.259620000000000 -85.881670000000000 62698
Fri Mar 18 00:00:00 GMT 2016 beth7197 Tulip poplar Liriodendron tulipifera Fruit (None) 37.259620000000000 -85.881670000000000 62699
Fri Mar 18 00:00:00 GMT 2016 ravelisabeth Tulip poplar Liriodendron tulipifera Leaves Unfolding (Early) 37.272280000000000 -85.891080000000000 62700
Fri Mar 18 00:00:00 GMT 2016 ravelisabeth Tulip poplar Liriodendron tulipifera Leaves Changing Color (None) 37.272280000000000 -85.891080000000000 62701
Fri Mar 18 00:00:00 GMT 2016 ravelisabeth Tulip poplar Liriodendron tulipifera Leaves Dropping (None) 37.272280000000000 -85.891080000000000 62702
Fri Mar 18 00:00:00 GMT 2016 ravelisabeth Tulip poplar Liriodendron tulipifera Flowers (None) 37.272280000000000 -85.891080000000000 62703
Fri Mar 18 00:00:00 GMT 2016 ravelisabeth Tulip poplar Liriodendron tulipifera Fruit (None) 37.272280000000000 -85.891080000000000 62704
Fri Mar 18 00:00:00 GMT 2016 lbskaggs Tulip poplar Liriodendron tulipifera Leaves Unfolding (Early) 37.272280000000000 -85.891080000000000 62710
Fri Mar 18 00:00:00 GMT 2016 lbskaggs Tulip poplar Liriodendron tulipifera Leaves Changing Color (None) 37.272280000000000 -85.891080000000000 62711
Fri Mar 18 00:00:00 GMT 2016 lbskaggs Tulip poplar Liriodendron tulipifera Leaves Dropping (None) 37.272280000000000 -85.891080000000000 62712
Fri Mar 18 00:00:00 GMT 2016 lbskaggs Tulip poplar Liriodendron tulipifera Flowers (None) 37.272280000000000 -85.891080000000000 62713
Fri Mar 18 00:00:00 GMT 2016 lbskaggs Tulip poplar Liriodendron tulipifera Fruit (None) 37.272280000000000 -85.891080000000000 62714
Fri Mar 18 00:00:00 GMT 2016 acfarmer Tulip poplar Liriodendron tulipifera Leaves Unfolding (None) 37.272280000000000 -85.891080000000000 62715
Fri Mar 18 00:00:00 GMT 2016 acfarmer Tulip poplar Liriodendron tulipifera Leaves Changing Color (None) 37.272280000000000 -85.891080000000000 62716
Fri Mar 18 00:00:00 GMT 2016 acfarmer Tulip poplar Liriodendron tulipifera Leaves Dropping (None) 37.272280000000000 -85.891080000000000 62717
Fri Mar 18 00:00:00 GMT 2016 acfarmer Tulip poplar Liriodendron tulipifera Flowers (None) 37.272280000000000 -85.891080000000000 62718
Fri Mar 18 00:00:00 GMT 2016 acfarmer Tulip poplar Liriodendron tulipifera Fruit (None) 37.272280000000000 -85.891080000000000 62719
Mon Mar 14 00:00:00 GMT 2016 jlbrichetto Tulip poplar Liriodendron tulipifera Bud Burst 36.138966000000000 -86.801675000000000 62777
Fri Mar 18 00:00:00 GMT 2016 jlbrichetto Tulip poplar Liriodendron tulipifera First Leaf 36.138966000000000 -86.801675000000000 62778
Sun Mar 20 00:00:00 GMT 2016 O2Factories Tulip poplar Liriodendron tulipifera Leaves Unfolding (Middle) 35.896276300000000 -86.410090300000000 62811
Sun Mar 20 00:00:00 GMT 2016 O2Factories Tulip poplar Liriodendron tulipifera Leaves Changing Color (None) 35.896276300000000 -86.410090300000000 62812
Sun Mar 20 00:00:00 GMT 2016 O2Factories Tulip poplar Liriodendron tulipifera Leaves Dropping (None) 35.896276300000000 -86.410090300000000 62813
Sun Mar 20 00:00:00 GMT 2016 O2Factories Tulip poplar Liriodendron tulipifera Flowers (None) 35.896276300000000 -86.410090300000000 62814
Sun Mar 20 00:00:00 GMT 2016 O2Factories Tulip poplar Liriodendron tulipifera Fruit (None) 35.896276300000000 -86.410090300000000 62815
Tue Mar 22 00:00:00 GMT 2016 sevoris17 Tulip poplar Liriodendron tulipifera Leaves Unfolding (Middle) 37.272280000000000 -85.891080000000000 63127
Tue Mar 22 00:00:00 GMT 2016 sevoris17 Tulip poplar Liriodendron tulipifera Leaves Changing Color (Late) 37.272280000000000 -85.891080000000000 63128
Tue Mar 22 00:00:00 GMT 2016 sevoris17 Tulip poplar Liriodendron tulipifera Leaves Dropping (Middle) 37.272280000000000 -85.891080000000000 63129
Tue Mar 22 00:00:00 GMT 2016 sevoris17 Tulip poplar Liriodendron tulipifera Flowers (None) 37.272280000000000 -85.891080000000000 63130
Tue Mar 22 00:00:00 GMT 2016 sevoris17 Tulip poplar Liriodendron tulipifera Fruit (None) 37.272280000000000 -85.891080000000000 63131
Tue Mar 22 00:00:00 GMT 2016 AutumnRhea98 Tulip poplar Liriodendron tulipifera Leaves Unfolding (Early) 37.259620000000000 -85.881670000000000 63132
Tue Mar 22 00:00:00 GMT 2016 AutumnRhea98 Tulip poplar Liriodendron tulipifera Leaves Changing Color (None) 37.259620000000000 -85.881670000000000 63133
Tue Mar 22 00:00:00 GMT 2016 AutumnRhea98 Tulip poplar Liriodendron tulipifera Leaves Dropping (None) 37.259620000000000 -85.881670000000000 63134
Tue Mar 22 00:00:00 GMT 2016 AutumnRhea98 Tulip poplar Liriodendron tulipifera Flowers (None) 37.259620000000000 -85.881670000000000 63135
Tue Mar 22 00:00:00 GMT 2016 AutumnRhea98 Tulip poplar Liriodendron tulipifera Fruit (None) 37.259620000000000 -85.881670000000000 63136
Tue Mar 22 00:00:00 GMT 2016 beth7197 Tulip poplar Liriodendron tulipifera Leaves Unfolding (Early) 37.259620000000000 -85.881670000000000 63137
Tue Mar 22 00:00:00 GMT 2016 beth7197 Tulip poplar Liriodendron tulipifera Leaves Changing Color (None) 37.259620000000000 -85.881670000000000 63138
Tue Mar 22 00:00:00 GMT 2016 beth7197 Tulip poplar Liriodendron tulipifera Leaves Dropping (None) 37.259620000000000 -85.881670000000000 63139
Tue Mar 22 00:00:00 GMT 2016 beth7197 Tulip poplar Liriodendron tulipifera Flowers (None) 37.259620000000000 -85.881670000000000 63140
Tue Mar 22 00:00:00 GMT 2016 beth7197 Tulip poplar Liriodendron tulipifera Fruit (None) 37.259620000000000 -85.881670000000000 63141
Tue Mar 22 00:00:00 GMT 2016 lbskaggs Tulip poplar Liriodendron tulipifera Leaves Unfolding (Early) 37.259620000000000 -85.881670000000000 63142
Tue Mar 22 00:00:00 GMT 2016 lbskaggs Tulip poplar Liriodendron tulipifera Leaves Changing Color (None) 37.259620000000000 -85.881670000000000 63143
Tue Mar 22 00:00:00 GMT 2016 lbskaggs Tulip poplar Liriodendron tulipifera Leaves Dropping (None) 37.259620000000000 -85.881670000000000 63144
Tue Mar 22 00:00:00 GMT 2016 lbskaggs Tulip poplar Liriodendron tulipifera Flowers (None) 37.259620000000000 -85.881670000000000 63145
Tue Mar 22 00:00:00 GMT 2016 lbskaggs Tulip poplar Liriodendron tulipifera Fruit (None) 37.259620000000000 -85.881670000000000 63146
Mon Mar 21 00:00:00 GMT 2016 ZTForman Tulip poplar Liriodendron tulipifera Bud Burst 37.259644000000000 -85.881551000000000 63147
Tue Mar 22 00:00:00 GMT 2016 kelci_adcock Tulip poplar Liriodendron tulipifera Leaves Unfolding (Early) 37.258120000000000 -85.884600000000000 63148
Fri Mar 18 00:00:00 GMT 2016 ZTForman Tulip poplar Liriodendron tulipifera First Leaf 37.259644000000000 -85.881551000000000 63149
Tue Mar 22 00:00:00 GMT 2016 kelci_adcock Tulip poplar Liriodendron tulipifera Leaves Changing Color (Early) 37.258120000000000 -85.884600000000000 63150
Tue Mar 22 00:00:00 GMT 2016 kelci_adcock Tulip poplar Liriodendron tulipifera Leaves Dropping (None) 37.258120000000000 -85.884600000000000 63151
Tue Mar 22 00:00:00 GMT 2016 kelci_adcock Tulip poplar Liriodendron tulipifera Flowers (Early) 37.258120000000000 -85.884600000000000 63152
Tue Mar 22 00:00:00 GMT 2016 kelci_adcock Tulip poplar Liriodendron tulipifera Fruit (None) 37.258120000000000 -85.884600000000000 63153
Tue Mar 22 00:00:00 GMT 2016 acfarmer Tulip poplar Liriodendron tulipifera Leaves Unfolding (Early) 37.272280000000000 -85.891080000000000 63154
Tue Mar 22 00:00:00 GMT 2016 acfarmer Tulip poplar Liriodendron tulipifera Leaves Changing Color (None) 37.272280000000000 -85.891080000000000 63155
Tue Mar 22 00:00:00 GMT 2016 acfarmer Tulip poplar Liriodendron tulipifera Leaves Dropping (None) 37.272280000000000 -85.891080000000000 63156
Tue Mar 22 00:00:00 GMT 2016 acfarmer Tulip poplar Liriodendron tulipifera Flowers (None) 37.272280000000000 -85.891080000000000 63157
Tue Mar 22 00:00:00 GMT 2016 acfarmer Tulip poplar Liriodendron tulipifera Fruit (None) 37.272280000000000 -85.891080000000000 63158
Tue Mar 22 00:00:00 GMT 2016 kmoss Tulip poplar Liriodendron tulipifera Leaves Unfolding (Early) 40.000000000000000 -100.000000000000000 63159
Tue Mar 22 00:00:00 GMT 2016 kmoss Tulip poplar Liriodendron tulipifera Leaves Changing Color (None) 40.000000000000000 -100.000000000000000 63160
Tue Mar 22 00:00:00 GMT 2016 kmoss Tulip poplar Liriodendron tulipifera Leaves Dropping (None) 40.000000000000000 -100.000000000000000 63161
Tue Mar 22 00:00:00 GMT 2016 kmoss Tulip poplar Liriodendron tulipifera Flowers (None) 40.000000000000000 -100.000000000000000 63162
Tue Mar 22 00:00:00 GMT 2016 kmoss Tulip poplar Liriodendron tulipifera Fruit (None) 40.000000000000000 -100.000000000000000 63163
Tue Mar 22 00:00:00 GMT 2016 bthomps1 Tulip poplar Liriodendron tulipifera Bud Burst 38.195980000000000 -85.534280000000000 63218
Tue Mar 22 00:00:00 GMT 2016 bthomps1 Tulip poplar Liriodendron tulipifera First Leaf 38.195980000000000 -85.534280000000000 63219
Tue Mar 22 00:00:00 GMT 2016 DallasBailey Tulip poplar Liriodendron tulipifera Leaves Unfolding (Early) 37.259672000000000 -85.881545000000000 63264
Tue Mar 22 00:00:00 GMT 2016 DallasBailey Tulip poplar Liriodendron tulipifera Leaves Changing Color (None) 37.259672000000000 -85.881545000000000 63265
Tue Mar 22 00:00:00 GMT 2016 DallasBailey Tulip poplar Liriodendron tulipifera Leaves Dropping (None) 37.259672000000000 -85.881545000000000 63266
Tue Mar 22 00:00:00 GMT 2016 DallasBailey Tulip poplar Liriodendron tulipifera Flowers (None) 37.259672000000000 -85.881545000000000 63267
Tue Mar 22 00:00:00 GMT 2016 DallasBailey Tulip poplar Liriodendron tulipifera Fruit (None) 37.259672000000000 -85.881545000000000 63268
Mon Mar 21 00:00:00 GMT 2016 Angelyn Tulip poplar Liriodendron tulipifera Bud Burst 35.619100000000000 -82.765100000000000 63270
Wed Mar 23 00:00:00 GMT 2016 lbskaggs Tulip poplar Liriodendron tulipifera Leaves Unfolding (Early) 37.272280000000000 -85.891080000000000 63359
Wed Mar 23 00:00:00 GMT 2016 lbskaggs Tulip poplar Liriodendron tulipifera Leaves Changing Color (None) 37.272280000000000 -85.891080000000000 63360
Wed Mar 23 00:00:00 GMT 2016 lbskaggs Tulip poplar Liriodendron tulipifera Leaves Dropping (None) 37.272280000000000 -85.891080000000000 63361
Wed Mar 23 00:00:00 GMT 2016 lbskaggs Tulip poplar Liriodendron tulipifera Flowers (None) 37.272280000000000 -85.891080000000000 63362
Wed Mar 23 00:00:00 GMT 2016 lbskaggs Tulip poplar Liriodendron tulipifera Fruit (None) 37.272280000000000 -85.891080000000000 63363
Fri Mar 25 00:00:00 GMT 2016 AutumnRhea98 Tulip poplar Liriodendron tulipifera Leaves Unfolding (Early) 37.259620000000000 -85.881670000000000 63456
Fri Mar 25 00:00:00 GMT 2016 AutumnRhea98 Tulip poplar Liriodendron tulipifera Leaves Unfolding (Early) 37.259620000000000 -85.881670000000000 63458
Fri Mar 25 00:00:00 GMT 2016 AutumnRhea98 Tulip poplar Liriodendron tulipifera Leaves Unfolding (Early) 37.259620000000000 -85.881670000000000 63461
Fri Mar 25 00:00:00 GMT 2016 AutumnRhea98 Tulip poplar Liriodendron tulipifera Leaves Changing Color (None) 37.259620000000000 -85.881670000000000 63465
Fri Mar 25 00:00:00 GMT 2016 AutumnRhea98 Tulip poplar Liriodendron tulipifera Leaves Changing Color (None) 37.259620000000000 -85.881670000000000 63467
Fri Mar 25 00:00:00 GMT 2016 AutumnRhea98 Tulip poplar Liriodendron tulipifera Leaves Dropping (None) 37.259620000000000 -85.881670000000000 63470
Fri Mar 25 00:00:00 GMT 2016 AutumnRhea98 Tulip poplar Liriodendron tulipifera Leaves Changing Color (None) 37.259620000000000 -85.881670000000000 63472
Fri Mar 25 00:00:00 GMT 2016 AutumnRhea98 Tulip poplar Liriodendron tulipifera Leaves Dropping (None) 37.259620000000000 -85.881670000000000 63477
Fri Mar 25 00:00:00 GMT 2016 AutumnRhea98 Tulip poplar Liriodendron tulipifera Flowers (Early) 37.259620000000000 -85.881670000000000 63478
Fri Mar 25 00:00:00 GMT 2016 AutumnRhea98 Tulip poplar Liriodendron tulipifera Leaves Dropping (None) 37.259620000000000 -85.881670000000000 63480
Fri Mar 25 00:00:00 GMT 2016 AutumnRhea98 Tulip poplar Liriodendron tulipifera Flowers (Early) 37.259620000000000 -85.881670000000000 63482
Fri Mar 25 00:00:00 GMT 2016 AutumnRhea98 Tulip poplar Liriodendron tulipifera Flowers (Early) 37.259620000000000 -85.881670000000000 63485
Fri Mar 25 00:00:00 GMT 2016 AutumnRhea98 Tulip poplar Liriodendron tulipifera Fruit (None) 37.259620000000000 -85.881670000000000 63486
Fri Mar 25 00:00:00 GMT 2016 AutumnRhea98 Tulip poplar Liriodendron tulipifera Fruit (None) 37.259620000000000 -85.881670000000000 63488
Fri Mar 25 00:00:00 GMT 2016 AutumnRhea98 Tulip poplar Liriodendron tulipifera Fruit (None) 37.259620000000000 -85.881670000000000 63490
Mon Mar 28 00:00:00 GMT 2016 acfarmer Tulip poplar Liriodendron tulipifera Leaves Unfolding (Early) 37.272280000000000 -85.891080000000000 63562
Mon Mar 28 00:00:00 GMT 2016 acfarmer Tulip poplar Liriodendron tulipifera Leaves Changing Color (None) 37.272280000000000 -85.891080000000000 63563
Mon Mar 28 00:00:00 GMT 2016 acfarmer Tulip poplar Liriodendron tulipifera Leaves Dropping (None) 37.272280000000000 -85.891080000000000 63564
Mon Mar 28 00:00:00 GMT 2016 acfarmer Tulip poplar Liriodendron tulipifera Flowers (Early) 37.272280000000000 -85.891080000000000 63565
Mon Mar 28 00:00:00 GMT 2016 acfarmer Tulip poplar Liriodendron tulipifera Fruit (None) 37.272280000000000 -85.891080000000000 63566
Mon Mar 28 00:00:00 GMT 2016 JoshShoulders41 Tulip poplar Liriodendron tulipifera Leaves Unfolding (Early) 37.272280000000000 -85.891080000000000 63567
Mon Mar 28 00:00:00 GMT 2016 JoshShoulders41 Tulip poplar Liriodendron tulipifera Leaves Changing Color (None) 37.272280000000000 -85.891080000000000 63568
Mon Mar 28 00:00:00 GMT 2016 JoshShoulders41 Tulip poplar Liriodendron tulipifera Leaves Dropping (None) 37.272280000000000 -85.891080000000000 63569
Mon Mar 28 00:00:00 GMT 2016 JoshShoulders41 Tulip poplar Liriodendron tulipifera Flowers (Early) 37.272280000000000 -85.891080000000000 63570
Mon Mar 28 00:00:00 GMT 2016 JoshShoulders41 Tulip poplar Liriodendron tulipifera Fruit (None) 37.272280000000000 -85.891080000000000 63571
Thu Mar 24 00:00:00 GMT 2016 bbasye01 Tulip poplar Liriodendron tulipifera Leaves Unfolding (Middle) 36.925241000000000 -80.022225000000000 63659
Thu Mar 24 00:00:00 GMT 2016 bbasye01 Tulip poplar Liriodendron tulipifera Leaves Changing Color (None) 36.925241000000000 -80.022225000000000 63660
Thu Mar 24 00:00:00 GMT 2016 bbasye01 Tulip poplar Liriodendron tulipifera Leaves Dropping (None) 36.925241000000000 -80.022225000000000 63661
Thu Mar 24 00:00:00 GMT 2016 bbasye01 Tulip poplar Liriodendron tulipifera Flowers (Middle) 36.925241000000000 -80.022225000000000 63662
Thu Mar 24 00:00:00 GMT 2016 bbasye01 Tulip poplar Liriodendron tulipifera Fruit (None) 36.925241000000000 -80.022225000000000 63663
Wed Mar 23 00:00:00 GMT 2016 akhoeing Tulip poplar Liriodendron tulipifera Bud Burst 39.165800000000000 -86.513200000000000 63896
Thu Mar 31 00:00:00 GMT 2016 akhoeing Tulip poplar Liriodendron tulipifera First Leaf 39.165800000000000 -86.513200000000000 63897
Sat Mar 19 00:00:00 GMT 2016 morrowm Tulip poplar Liriodendron tulipifera Bud Burst 39.170790000000000 -86.530040000000000 63927
Tue Apr 05 00:00:00 GMT 2016 morrowm Tulip poplar Liriodendron tulipifera First Leaf 39.170790000000000 -86.530040000000000 63928
Wed Mar 30 00:00:00 GMT 2016 matthewcouch411 Tulip poplar Liriodendron tulipifera Bud Burst 40.000000000000000 -100.000000000000000 64080
Sun Apr 10 00:00:00 GMT 2016 Estella_Monica Tulip poplar Liriodendron tulipifera Leaves Unfolding (Middle) 35.866936000000000 -78.747768000000000 64113
Sun Apr 10 00:00:00 GMT 2016 Estella_Monica Tulip poplar Liriodendron tulipifera Leaves Changing Color (None) 35.866936000000000 -78.747768000000000 64114
Sun Apr 10 00:00:00 GMT 2016 Estella_Monica Tulip poplar Liriodendron tulipifera Leaves Dropping (None) 35.866936000000000 -78.747768000000000 64115
Sun Apr 10 00:00:00 GMT 2016 Estella_Monica Tulip poplar Liriodendron tulipifera Flowers (Early) 35.866936000000000 -78.747768000000000 64116
Sun Apr 10 00:00:00 GMT 2016 Estella_Monica Tulip poplar Liriodendron tulipifera Fruit (None) 35.866936000000000 -78.747768000000000 64117
Sat Feb 13 00:00:00 GMT 2016 Alharmer Tulip poplar Liriodendron tulipifera Bud Burst 39.162236000000000 -86.568744000000000 64174
Wed Mar 09 00:00:00 GMT 2016 knjarret Tulip poplar Liriodendron tulipifera Bud Burst 39.180160000000000 -86.540760000000000 64228
Wed Mar 23 00:00:00 GMT 2016 knjarret Tulip poplar Liriodendron tulipifera First Leaf 39.180160000000000 -86.540760000000000 64229
Wed Mar 09 00:00:00 GMT 2016 knjarret Tulip poplar Liriodendron tulipifera Bud Burst 39.180160000000000 -86.540760000000000 64230
Wed Mar 23 00:00:00 GMT 2016 knjarret Tulip poplar Liriodendron tulipifera First Leaf 39.180160000000000 -86.540760000000000 64231
Wed Jan 20 00:00:00 GMT 2016 lkurucz Tulip poplar Liriodendron tulipifera Leaves Unfolding (None) 39.167050000000000 -86.526940000000000 64295
Wed Jan 20 00:00:00 GMT 2016 lkurucz Tulip poplar Liriodendron tulipifera Leaves Changing Color (None) 39.167050000000000 -86.526940000000000 64296
Wed Jan 20 00:00:00 GMT 2016 lkurucz Tulip poplar Liriodendron tulipifera Leaves Dropping (None) 39.167050000000000 -86.526940000000000 64297
Wed Jan 20 00:00:00 GMT 2016 lkurucz Tulip poplar Liriodendron tulipifera Flowers (None) 39.167050000000000 -86.526940000000000 64298
Wed Jan 20 00:00:00 GMT 2016 lkurucz Tulip poplar Liriodendron tulipifera Fruit (None) 39.167050000000000 -86.526940000000000 64299
Wed Jan 20 00:00:00 GMT 2016 lkurucz Tulip poplar Liriodendron tulipifera Leaves Unfolding (None) 39.167050000000000 -86.526940000000000 64300
Wed Jan 20 00:00:00 GMT 2016 lkurucz Tulip poplar Liriodendron tulipifera Leaves Changing Color (None) 39.167050000000000 -86.526940000000000 64301
Wed Jan 20 00:00:00 GMT 2016 lkurucz Tulip poplar Liriodendron tulipifera Leaves Dropping (None) 39.167050000000000 -86.526940000000000 64302
Wed Jan 20 00:00:00 GMT 2016 lkurucz Tulip poplar Liriodendron tulipifera Flowers (None) 39.167050000000000 -86.526940000000000 64303
Wed Jan 20 00:00:00 GMT 2016 lkurucz Tulip poplar Liriodendron tulipifera Fruit (None) 39.167050000000000 -86.526940000000000 64304
Mon Apr 11 00:00:00 GMT 2016 jatambur Tulip poplar Liriodendron tulipifera Leaves Unfolding (Early) 39.165330000000000 -86.526390000000000 64335
Mon Apr 11 00:00:00 GMT 2016 jatambur Tulip poplar Liriodendron tulipifera Leaves Changing Color (None) 39.165330000000000 -86.526390000000000 64336
Mon Apr 11 00:00:00 GMT 2016 jatambur Tulip poplar Liriodendron tulipifera Leaves Dropping (None) 39.165330000000000 -86.526390000000000 64337
Mon Apr 11 00:00:00 GMT 2016 jatambur Tulip poplar Liriodendron tulipifera Flowers (Early) 39.165330000000000 -86.526390000000000 64338
Mon Apr 11 00:00:00 GMT 2016 jatambur Tulip poplar Liriodendron tulipifera Fruit (None) 39.165330000000000 -86.526390000000000 64339
Thu Mar 31 00:00:00 GMT 2016 jatambur Tulip poplar Liriodendron tulipifera Bud Burst 39.165330000000000 -86.526390000000000 64340
Thu Apr 07 00:00:00 GMT 2016 jatambur Tulip poplar Liriodendron tulipifera First Flower 39.165330000000000 -86.526390000000000 64341
Fri Apr 01 00:00:00 GMT 2016 rohumphr Tulip poplar Liriodendron tulipifera Bud Burst 39.167643000000000 -86.525745000000000 64381
Fri Apr 08 00:00:00 GMT 2016 rohumphr Tulip poplar Liriodendron tulipifera Bud Burst 39.167651000000000 -86.525488000000000 64383
Tue Apr 19 00:00:00 GMT 2016 amydug_Neoga_Outdoor_Classroom_reporter11 Tulip poplar Liriodendron tulipifera Leaves Unfolding (Middle) 39.319440000000000 -88.441961000000000 64764
Tue Apr 19 00:00:00 GMT 2016 amydug_Neoga_Outdoor_Classroom_reporter11 Tulip poplar Liriodendron tulipifera Leaves Changing Color (None) 39.319440000000000 -88.441961000000000 64765
Tue Apr 19 00:00:00 GMT 2016 amydug_Neoga_Outdoor_Classroom_reporter11 Tulip poplar Liriodendron tulipifera Leaves Dropping (None) 39.319440000000000 -88.441961000000000 64766
Tue Apr 19 00:00:00 GMT 2016 amydug_Neoga_Outdoor_Classroom_reporter11 Tulip poplar Liriodendron tulipifera Flowers (Middle) 39.319440000000000 -88.441961000000000 64767
Tue Apr 19 00:00:00 GMT 2016 amydug_Neoga_Outdoor_Classroom_reporter11 Tulip poplar Liriodendron tulipifera Fruit (None) 39.319440000000000 -88.441961000000000 64768
Wed Apr 20 00:00:00 GMT 2016 bthomps1 Tulip poplar Liriodendron tulipifera All Leaves Unfolded 38.195980000000000 -85.534280000000000 64884
Tue Apr 19 00:00:00 GMT 2016 woodsedge Tulip poplar Liriodendron tulipifera First Leaf 38.565400000000000 -78.926000000000000 64891
Thu Apr 21 00:00:00 GMT 2016 GCHardy Tulip poplar Liriodendron tulipifera Leaves Unfolding (Middle) 39.211600000000000 -76.877640000000000 64921
Thu Apr 21 00:00:00 GMT 2016 GCHardy Tulip poplar Liriodendron tulipifera Leaves Changing Color (None) 39.211600000000000 -76.877640000000000 64922
Thu Apr 21 00:00:00 GMT 2016 GCHardy Tulip poplar Liriodendron tulipifera Leaves Dropping (None) 39.211600000000000 -76.877640000000000 64923
Thu Apr 21 00:00:00 GMT 2016 GCHardy Tulip poplar Liriodendron tulipifera Flowers (None) 39.211600000000000 -76.877640000000000 64924
Thu Apr 21 00:00:00 GMT 2016 GCHardy Tulip poplar Liriodendron tulipifera Fruit (None) 39.211600000000000 -76.877640000000000 64925
Fri Apr 22 00:00:00 GMT 2016 lkurucz Tulip poplar Liriodendron tulipifera Leaves Unfolding (Middle) 39.167050000000000 -86.526940000000000 64985
Fri Apr 22 00:00:00 GMT 2016 lkurucz Tulip poplar Liriodendron tulipifera Leaves Changing Color (None) 39.167050000000000 -86.526940000000000 64986
Fri Apr 22 00:00:00 GMT 2016 lkurucz Tulip poplar Liriodendron tulipifera Leaves Dropping (None) 39.167050000000000 -86.526940000000000 64987
Fri Apr 22 00:00:00 GMT 2016 lkurucz Tulip poplar Liriodendron tulipifera Flowers (Middle) 39.167050000000000 -86.526940000000000 64988
Fri Apr 22 00:00:00 GMT 2016 lkurucz Tulip poplar Liriodendron tulipifera Fruit (Early) 39.167050000000000 -86.526940000000000 64989
Fri Apr 22 00:00:00 GMT 2016 lkurucz Tulip poplar Liriodendron tulipifera Leaves Unfolding (Middle) 39.167050000000000 -86.526940000000000 64995
Fri Apr 22 00:00:00 GMT 2016 lkurucz Tulip poplar Liriodendron tulipifera Leaves Changing Color (None) 39.167050000000000 -86.526940000000000 64996
Fri Apr 22 00:00:00 GMT 2016 lkurucz Tulip poplar Liriodendron tulipifera Leaves Dropping (None) 39.167050000000000 -86.526940000000000 64997
Fri Apr 22 00:00:00 GMT 2016 lkurucz Tulip poplar Liriodendron tulipifera Flowers (Early) 39.167050000000000 -86.526940000000000 64998
Fri Apr 22 00:00:00 GMT 2016 lkurucz Tulip poplar Liriodendron tulipifera Fruit (None) 39.167050000000000 -86.526940000000000 64999
Fri Apr 22 00:00:00 GMT 2016 lkurucz Tulip poplar Liriodendron tulipifera Leaves Unfolding (Middle) 39.270500000000000 -86.526940000000000 65000
Fri Apr 22 00:00:00 GMT 2016 lkurucz Tulip poplar Liriodendron tulipifera Leaves Changing Color (None) 39.270500000000000 -86.526940000000000 65001
Fri Apr 22 00:00:00 GMT 2016 lkurucz Tulip poplar Liriodendron tulipifera Leaves Dropping (None) 39.270500000000000 -86.526940000000000 65002
Fri Apr 22 00:00:00 GMT 2016 lkurucz Tulip poplar Liriodendron tulipifera Flowers (Early) 39.270500000000000 -86.526940000000000 65003
Fri Apr 22 00:00:00 GMT 2016 lkurucz Tulip poplar Liriodendron tulipifera Fruit (None) 39.270500000000000 -86.526940000000000 65004
Fri Apr 22 00:00:00 GMT 2016 lkurucz Tulip poplar Liriodendron tulipifera Leaves Unfolding (Late) 39.180500000000000 -86.526940000000000 65010
Fri Apr 22 00:00:00 GMT 2016 lkurucz Tulip poplar Liriodendron tulipifera Leaves Changing Color (None) 39.180500000000000 -86.526940000000000 65011
Fri Apr 22 00:00:00 GMT 2016 lkurucz Tulip poplar Liriodendron tulipifera Leaves Dropping (None) 39.180500000000000 -86.526940000000000 65012
Fri Apr 22 00:00:00 GMT 2016 lkurucz Tulip poplar Liriodendron tulipifera Flowers (Middle) 39.180500000000000 -86.526940000000000 65013
Fri Apr 22 00:00:00 GMT 2016 lkurucz Tulip poplar Liriodendron tulipifera Fruit (Middle) 39.180500000000000 -86.526940000000000 65014
Mon Apr 25 00:00:00 GMT 2016 aa94 Tulip poplar Liriodendron tulipifera Leaves Unfolding (Early) 40.131382000000000 -75.137025000000000 65406
Mon Apr 25 00:00:00 GMT 2016 aa94 Tulip poplar Liriodendron tulipifera Leaves Changing Color (None) 40.131382000000000 -75.137025000000000 65407
Mon Apr 25 00:00:00 GMT 2016 aa94 Tulip poplar Liriodendron tulipifera Leaves Dropping (None) 40.131382000000000 -75.137025000000000 65408
Mon Apr 25 00:00:00 GMT 2016 aa94 Tulip poplar Liriodendron tulipifera Flowers (None) 40.131382000000000 -75.137025000000000 65409
Mon Apr 25 00:00:00 GMT 2016 aa94 Tulip poplar Liriodendron tulipifera Fruit (None) 40.131382000000000 -75.137025000000000 65410
Wed Apr 27 00:00:00 GMT 2016 bthomps1 Tulip poplar Liriodendron tulipifera First Flower 38.195980000000000 -85.534280000000000 65715
Fri May 06 00:00:00 GMT 2016 GCHardy Tulip poplar Liriodendron tulipifera Leaves Unfolding (Late) 39.211600000000000 -76.877640000000000 66436
Fri May 06 00:00:00 GMT 2016 GCHardy Tulip poplar Liriodendron tulipifera Leaves Changing Color (None) 39.211600000000000 -76.877640000000000 66437
Fri May 06 00:00:00 GMT 2016 GCHardy Tulip poplar Liriodendron tulipifera Leaves Dropping (None) 39.211600000000000 -76.877640000000000 66438
Fri May 06 00:00:00 GMT 2016 GCHardy Tulip poplar Liriodendron tulipifera Flowers (None) 39.211600000000000 -76.877640000000000 66439
Fri May 06 00:00:00 GMT 2016 GCHardy Tulip poplar Liriodendron tulipifera Fruit (None) 39.211600000000000 -76.877640000000000 66440
Sat Apr 30 00:00:00 GMT 2016 woodsedge Tulip poplar Liriodendron tulipifera All Leaves Unfolded 38.565400000000000 -78.926000000000000 66469
Fri May 13 00:00:00 GMT 2016 abunker Tulip poplar Liriodendron tulipifera Leaves Unfolding (Middle) 42.480030000000000 -83.162510000000000 67087
Fri May 13 00:00:00 GMT 2016 abunker Tulip poplar Liriodendron tulipifera Leaves Changing Color (None) 42.480030000000000 -83.162510000000000 67088
Fri May 13 00:00:00 GMT 2016 abunker Tulip poplar Liriodendron tulipifera Leaves Dropping (None) 42.480030000000000 -83.162510000000000 67089
Fri May 13 00:00:00 GMT 2016 abunker Tulip poplar Liriodendron tulipifera Flowers (None) 42.480030000000000 -83.162510000000000 67090
Fri May 13 00:00:00 GMT 2016 abunker Tulip poplar Liriodendron tulipifera Fruit (None) 42.480030000000000 -83.162510000000000 67091
Tue Jun 07 00:00:00 GMT 2016 OldGreyTroll Tulip poplar Liriodendron tulipifera Leaves Unfolding (Late) 39.645120000000000 -77.484220000000000 68306
Tue Jun 07 00:00:00 GMT 2016 OldGreyTroll Tulip poplar Liriodendron tulipifera Leaves Changing Color (None) 39.645120000000000 -77.484220000000000 68307
Tue Jun 07 00:00:00 GMT 2016 OldGreyTroll Tulip poplar Liriodendron tulipifera Leaves Dropping (None) 39.645120000000000 -77.484220000000000 68308
Tue Jun 07 00:00:00 GMT 2016 OldGreyTroll Tulip poplar Liriodendron tulipifera Flowers (Middle) 39.645120000000000 -77.484220000000000 68309
Tue Jun 07 00:00:00 GMT 2016 OldGreyTroll Tulip poplar Liriodendron tulipifera Fruit (None) 39.645120000000000 -77.484220000000000 68310
Tue May 03 00:00:00 GMT 2016 bthomps1 Tulip poplar Liriodendron tulipifera Full Flower 38.195980000000000 -85.534280000000000 68443
Tue Oct 04 00:00:00 GMT 2016 AshevilleSchool Tulip poplar Liriodendron tulipifera Bud Burst 35.568290000000000 -82.621970000000000 70634
Mon Oct 17 00:00:00 GMT 2016 bthomps1 Tulip poplar Liriodendron tulipifera First Ripe Fruit 38.195980000000000 -85.534280000000000 70807
Thu Sep 15 00:00:00 GMT 2016 bthomps1 Tulip poplar Liriodendron tulipifera 50% Color 38.195980000000000 -85.534280000000000 70808
Mon Oct 17 00:00:00 GMT 2016 bthomps1 Tulip poplar Liriodendron tulipifera 50% Leaf Fall 38.195980000000000 -85.534280000000000 70809
Mon Oct 03 00:00:00 GMT 2016 nahomi345 Tulip poplar Liriodendron tulipifera Leaves Unfolding (Late) 38.789700000000000 -90.488500000000000 70837
Mon Oct 03 00:00:00 GMT 2016 nahomi345 Tulip poplar Liriodendron tulipifera Leaves Changing Color (Early) 38.789700000000000 -90.488500000000000 70838
Mon Oct 03 00:00:00 GMT 2016 nahomi345 Tulip poplar Liriodendron tulipifera Leaves Dropping (Early) 38.789700000000000 -90.488500000000000 70839
Mon Oct 03 00:00:00 GMT 2016 nahomi345 Tulip poplar Liriodendron tulipifera Flowers (None) 38.789700000000000 -90.488500000000000 70840
Mon Oct 03 00:00:00 GMT 2016 nahomi345 Tulip poplar Liriodendron tulipifera Fruit (None) 38.789700000000000 -90.488500000000000 70841
Sat Oct 22 00:00:00 GMT 2016 AshevilleSchool_Asheville_School_Kehaya_reporter2 Tulip poplar Liriodendron tulipifera 50% Color 35.566279000000000 -82.621275000000000 71048
Sat Oct 22 00:00:00 GMT 2016 AshevilleSchool_Asheville_School_Kehaya_reporter2 Tulip poplar Liriodendron tulipifera 50% Leaf Fall 35.566279000000000 -82.621275000000000 71049
Sun Oct 16 00:00:00 GMT 2016 AshevilleSchool Tulip poplar Liriodendron tulipifera 50% Color 35.566279000000000 -82.621275000000000 71052
Wed Oct 19 00:00:00 GMT 2016 AshevilleSchool Tulip poplar Liriodendron tulipifera 50% Leaf Fall 35.566279000000000 -82.621275000000000 71053
Sun Oct 16 00:00:00 GMT 2016 AshevilleSchool Tulip poplar Liriodendron tulipifera 50% Color 35.568290000000000 -82.621970000000000 71054
Wed Oct 19 00:00:00 GMT 2016 AshevilleSchool Tulip poplar Liriodendron tulipifera 50% Leaf Fall 35.568290000000000 -82.621970000000000 71055
Mon Oct 17 00:00:00 GMT 2016 AshevilleSchool Tulip poplar Liriodendron tulipifera 50% Color 35.569324000000000 -82.620696000000000 71057
Mon Oct 17 00:00:00 GMT 2016 AshevilleSchool Tulip poplar Liriodendron tulipifera 50% Leaf Fall 35.569324000000000 -82.620696000000000 71058
Sat Oct 22 00:00:00 GMT 2016 AshevilleSchool_Asheville_School_Tennis_Courts_reporter1 Tulip poplar Liriodendron tulipifera 50% Color 35.564786000000000 -82.624075000000000 71061
Sat Oct 22 00:00:00 GMT 2016 AshevilleSchool_Asheville_School_Tennis_Courts_reporter1 Tulip poplar Liriodendron tulipifera 50% Leaf Fall 35.564786000000000 -82.624075000000000 71062
Sun Oct 30 00:00:00 GMT 2016 poleson Tulip poplar Liriodendron tulipifera 50% Color 40.800840000000000 -85.131750000000000 71553
Tue Nov 01 00:00:00 GMT 2016 gobrechj Tulip poplar Liriodendron tulipifera Leaves Unfolding (Late) 39.877314000000000 -76.870431000000000 72180
Tue Nov 01 00:00:00 GMT 2016 gobrechj Tulip poplar Liriodendron tulipifera Leaves Changing Color (Early) 39.877314000000000 -76.870431000000000 72181
Tue Nov 01 00:00:00 GMT 2016 gobrechj Tulip poplar Liriodendron tulipifera Leaves Dropping (Middle) 39.877314000000000 -76.870431000000000 72182
Tue Nov 01 00:00:00 GMT 2016 gobrechj Tulip poplar Liriodendron tulipifera Flowers (None) 39.877314000000000 -76.870431000000000 72183
Tue Nov 01 00:00:00 GMT 2016 gobrechj Tulip poplar Liriodendron tulipifera Fruit (None) 39.877314000000000 -76.870431000000000 72184
Wed Nov 02 00:00:00 GMT 2016 gobrechj Tulip poplar Liriodendron tulipifera Leaves Unfolding (Late) 40.220360000000000 -76.769690000000000 72268
Wed Nov 02 00:00:00 GMT 2016 gobrechj Tulip poplar Liriodendron tulipifera Leaves Changing Color (Middle) 40.220360000000000 -76.769690000000000 72269
Wed Nov 02 00:00:00 GMT 2016 gobrechj Tulip poplar Liriodendron tulipifera Leaves Dropping (Middle) 40.220360000000000 -76.769690000000000 72270
Wed Nov 02 00:00:00 GMT 2016 gobrechj Tulip poplar Liriodendron tulipifera Flowers (None) 40.220360000000000 -76.769690000000000 72271
Wed Nov 02 00:00:00 GMT 2016 gobrechj Tulip poplar Liriodendron tulipifera Fruit (None) 40.220360000000000 -76.769690000000000 72272
Wed Oct 26 00:00:00 GMT 2016 jrseck4 Tulip poplar Liriodendron tulipifera 50% Color 33.983083000000000 -84.384044000000000 72336
Thu Oct 20 00:00:00 GMT 2016 thenaturalist Tulip poplar Liriodendron tulipifera 50% Color 39.572800000000000 -75.282500000000000 72347
Thu Oct 27 00:00:00 GMT 2016 thenaturalist Tulip poplar Liriodendron tulipifera 50% Leaf Fall 39.572800000000000 -75.282500000000000 72348
Tue Nov 01 00:00:00 GMT 2016 jbrannon Tulip poplar Liriodendron tulipifera Bud Burst 35.099470000000000 -83.104370000000000 72386
Thu Oct 06 00:00:00 GMT 2016 jbrannon Tulip poplar Liriodendron tulipifera 50% Color 35.099470000000000 -83.104370000000000 72387
Tue Nov 01 00:00:00 GMT 2016 jbrannon Tulip poplar Liriodendron tulipifera 50% Leaf Fall 35.099470000000000 -83.104370000000000 72388
Mon Oct 24 00:00:00 GMT 2016 bthomps1 Tulip poplar Liriodendron tulipifera Full Fruiting 38.195980000000000 -85.534280000000000 72638
Sun Nov 06 00:00:00 GMT 2016 marciapartin Tulip poplar Liriodendron tulipifera Leaves Unfolding (Late) 35.663433000000000 -83.525984000000000 72684
Sun Nov 06 00:00:00 GMT 2016 marciapartin Tulip poplar Liriodendron tulipifera Leaves Changing Color (Late) 35.663433000000000 -83.525984000000000 72685
Sun Nov 06 00:00:00 GMT 2016 marciapartin Tulip poplar Liriodendron tulipifera Leaves Dropping (Middle) 35.663433000000000 -83.525984000000000 72686
Sun Nov 06 00:00:00 GMT 2016 marciapartin Tulip poplar Liriodendron tulipifera Flowers (Late) 35.663433000000000 -83.525984000000000 72687
Sun Nov 06 00:00:00 GMT 2016 marciapartin Tulip poplar Liriodendron tulipifera Fruit (Late) 35.663433000000000 -83.525984000000000 72688
Mon Nov 07 00:00:00 GMT 2016 gobrechj Tulip poplar Liriodendron tulipifera Leaves Unfolding (Late) 39.874540000000000 -76.865810000000000 72723
Mon Nov 07 00:00:00 GMT 2016 gobrechj Tulip poplar Liriodendron tulipifera Leaves Unfolding (Late) 39.874540000000000 -76.865810000000000 72724
Mon Nov 07 00:00:00 GMT 2016 gobrechj Tulip poplar Liriodendron tulipifera Leaves Changing Color (Late) 39.874540000000000 -76.865810000000000 72725
Mon Nov 07 00:00:00 GMT 2016 gobrechj Tulip poplar Liriodendron tulipifera Leaves Changing Color (Late) 39.874540000000000 -76.865810000000000 72726
Mon Nov 07 00:00:00 GMT 2016 gobrechj Tulip poplar Liriodendron tulipifera Leaves Dropping (Late) 39.874540000000000 -76.865810000000000 72727
Mon Nov 07 00:00:00 GMT 2016 gobrechj Tulip poplar Liriodendron tulipifera Leaves Dropping (Late) 39.874540000000000 -76.865810000000000 72728
Mon Nov 07 00:00:00 GMT 2016 gobrechj Tulip poplar Liriodendron tulipifera Flowers (None) 39.874540000000000 -76.865810000000000 72729
Mon Nov 07 00:00:00 GMT 2016 gobrechj Tulip poplar Liriodendron tulipifera Flowers (None) 39.874540000000000 -76.865810000000000 72730
Mon Nov 07 00:00:00 GMT 2016 gobrechj Tulip poplar Liriodendron tulipifera Fruit (None) 39.874540000000000 -76.865810000000000 72731
Mon Nov 07 00:00:00 GMT 2016 gobrechj Tulip poplar Liriodendron tulipifera Fruit (None) 39.874540000000000 -76.865810000000000 72732
Tue Nov 08 00:00:00 GMT 2016 gobrechj Tulip poplar Liriodendron tulipifera Leaves Unfolding (Middle) 39.877831000000000 -76.870329000000000 72777
Tue Nov 08 00:00:00 GMT 2016 gobrechj Tulip poplar Liriodendron tulipifera Leaves Changing Color (Middle) 39.877831000000000 -76.870329000000000 72778
Tue Nov 08 00:00:00 GMT 2016 gobrechj Tulip poplar Liriodendron tulipifera Leaves Unfolding (Middle) 39.877831000000000 -76.870329000000000 72779
Tue Nov 08 00:00:00 GMT 2016 gobrechj Tulip poplar Liriodendron tulipifera Leaves Changing Color (Middle) 39.877831000000000 -76.870329000000000 72780
Tue Nov 08 00:00:00 GMT 2016 gobrechj Tulip poplar Liriodendron tulipifera Leaves Dropping (Late) 39.877831000000000 -76.870329000000000 72781
Tue Nov 08 00:00:00 GMT 2016 gobrechj Tulip poplar Liriodendron tulipifera Leaves Dropping (Late) 39.877831000000000 -76.870329000000000 72782
Tue Nov 08 00:00:00 GMT 2016 gobrechj Tulip poplar Liriodendron tulipifera Flowers (None) 39.877831000000000 -76.870329000000000 72783
Tue Nov 08 00:00:00 GMT 2016 gobrechj Tulip poplar Liriodendron tulipifera Flowers (None) 39.877831000000000 -76.870329000000000 72784
Tue Nov 08 00:00:00 GMT 2016 gobrechj Tulip poplar Liriodendron tulipifera Fruit (None) 39.877831000000000 -76.870329000000000 72785
Tue Nov 08 00:00:00 GMT 2016 gobrechj Tulip poplar Liriodendron tulipifera Fruit (None) 39.877831000000000 -76.870329000000000 72786
Mon Nov 07 00:00:00 GMT 2016 woodsedge Tulip poplar Liriodendron tulipifera 50% Color 38.565400000000000 -78.926000000000000 72997
Thu Nov 10 00:00:00 GMT 2016 SWRaiders_Southern_Wells_High_School_reporter3 Tulip poplar Liriodendron tulipifera Bud Burst 40.609672000000000 -85.281131000000000 73129
Wed Nov 02 00:00:00 GMT 2016 SWRaiders_Southern_Wells_High_School_reporter3 Tulip poplar Liriodendron tulipifera 50% Color 40.609672000000000 -85.281131000000000 73130
Thu Nov 10 00:00:00 GMT 2016 SWRaiders_Southern_Wells_High_School_reporter3 Tulip poplar Liriodendron tulipifera 50% Leaf Fall 40.609672000000000 -85.281131000000000 73131
Mon Oct 17 00:00:00 GMT 2016 lasmccoy Tulip poplar Liriodendron tulipifera 50% Color 39.504041000000000 -86.638184000000000 73230
Fri Oct 21 00:00:00 GMT 2016 lasmccoy Tulip poplar Liriodendron tulipifera 50% Leaf Fall 39.504041000000000 -86.638184000000000 73231
Mon Nov 14 00:00:00 GMT 2016 Chirpnsing Tulip poplar Liriodendron tulipifera 50% Leaf Fall 33.515510000000000 -81.747220000000000 73238
Mon Nov 14 00:00:00 GMT 2016 Chirpnsing Tulip poplar Liriodendron tulipifera 50% Leaf Fall 33.515510000000000 -81.747220000000000 73239
Wed Oct 12 00:00:00 GMT 2016 dinagreenberg1 Tulip poplar Liriodendron tulipifera 50% Color 39.165330000000000 -86.526390000000000 73321
Wed Oct 12 00:00:00 GMT 2016 dinagreenberg1 Tulip poplar Liriodendron tulipifera 50% Leaf Fall 39.165330000000000 -86.526390000000000 73322
Thu Nov 03 00:00:00 GMT 2016 rtessaro Tulip poplar Liriodendron tulipifera 50% Color 39.175204000000000 -86.514823000000000 73334
Fri Nov 11 00:00:00 GMT 2016 rtessaro Tulip poplar Liriodendron tulipifera 50% Leaf Fall 39.175204000000000 -86.514823000000000 73335
Fri Oct 28 00:00:00 GMT 2016 Kmellina Tulip poplar Liriodendron tulipifera 50% Color 40.927051000000000 -73.784502000000000 73863
Mon Oct 31 00:00:00 GMT 2016 Kmellina Tulip poplar Liriodendron tulipifera 50% Leaf Fall 40.927051000000000 -73.784502000000000 73864
Fri Apr 29 00:00:00 GMT 2016 reinsteinwoods Tulip poplar Liriodendron tulipifera Bud Burst 42.886600000000000 -78.718100000000000 74331
Fri May 06 00:00:00 GMT 2016 reinsteinwoods Tulip poplar Liriodendron tulipifera First Leaf 42.886600000000000 -78.718100000000000 74332
Wed May 11 00:00:00 GMT 2016 reinsteinwoods Tulip poplar Liriodendron tulipifera All Leaves Unfolded 42.886600000000000 -78.718100000000000 74333
Wed Jun 08 00:00:00 GMT 2016 reinsteinwoods Tulip poplar Liriodendron tulipifera First Flower 42.886600000000000 -78.718100000000000 74334
Mon Jun 13 00:00:00 GMT 2016 reinsteinwoods Tulip poplar Liriodendron tulipifera Full Flower 42.886600000000000 -78.718100000000000 74335
Thu Jun 30 00:00:00 GMT 2016 reinsteinwoods Tulip poplar Liriodendron tulipifera First Ripe Fruit 42.886600000000000 -78.718100000000000 74336
Fri Jul 15 00:00:00 GMT 2016 reinsteinwoods Tulip poplar Liriodendron tulipifera Full Fruiting 42.886600000000000 -78.718100000000000 74337
Sun Oct 30 00:00:00 GMT 2016 reinsteinwoods Tulip poplar Liriodendron tulipifera 50% Color 42.886600000000000 -78.718100000000000 74338
Sun Nov 20 00:00:00 GMT 2016 reinsteinwoods Tulip poplar Liriodendron tulipifera 50% Leaf Fall 42.886600000000000 -78.718100000000000 74339
Wed Dec 14 00:00:00 GMT 2016 gobrechj Tulip poplar Liriodendron tulipifera Leaves Unfolding (None) 39.874540000000000 -76.865810000000000 74409
Wed Dec 14 00:00:00 GMT 2016 gobrechj Tulip poplar Liriodendron tulipifera Leaves Unfolding (None) 39.874540000000000 -76.865810000000000 74410
Wed Dec 14 00:00:00 GMT 2016 gobrechj Tulip poplar Liriodendron tulipifera Leaves Changing Color (Late) 39.874540000000000 -76.865810000000000 74411
Wed Dec 14 00:00:00 GMT 2016 gobrechj Tulip poplar Liriodendron tulipifera Leaves Changing Color (Late) 39.874540000000000 -76.865810000000000 74412
Wed Dec 14 00:00:00 GMT 2016 gobrechj Tulip poplar Liriodendron tulipifera Leaves Dropping (Late) 39.874540000000000 -76.865810000000000 74413
Wed Dec 14 00:00:00 GMT 2016 gobrechj Tulip poplar Liriodendron tulipifera Leaves Dropping (Late) 39.874540000000000 -76.865810000000000 74414
Wed Dec 14 00:00:00 GMT 2016 gobrechj Tulip poplar Liriodendron tulipifera Flowers (Middle) 39.874540000000000 -76.865810000000000 74415
Wed Dec 14 00:00:00 GMT 2016 gobrechj Tulip poplar Liriodendron tulipifera Flowers (Middle) 39.874540000000000 -76.865810000000000 74416
Wed Dec 14 00:00:00 GMT 2016 gobrechj Tulip poplar Liriodendron tulipifera Fruit (Late) 39.874540000000000 -76.865810000000000 74417
Wed Dec 14 00:00:00 GMT 2016 gobrechj Tulip poplar Liriodendron tulipifera Fruit (Late) 39.874540000000000 -76.865810000000000 74418
Fri Nov 11 00:00:00 GMT 2016 jrseck4 Tulip poplar Liriodendron tulipifera 50% Leaf Fall 33.983083000000000 -84.384044000000000 74490
Fri Feb 10 00:00:00 GMT 2017 pseevers Tulip poplar Liriodendron tulipifera Leaves Unfolding (None) 39.234563000000000 -84.592119000000000 74828
Fri Feb 10 00:00:00 GMT 2017 pseevers Tulip poplar Liriodendron tulipifera Leaves Changing Color (None) 39.234563000000000 -84.592119000000000 74829
Fri Feb 10 00:00:00 GMT 2017 pseevers Tulip poplar Liriodendron tulipifera Leaves Dropping (None) 39.234563000000000 -84.592119000000000 74830
Fri Feb 10 00:00:00 GMT 2017 pseevers Tulip poplar Liriodendron tulipifera Flowers (None) 39.234563000000000 -84.592119000000000 74831
Fri Feb 10 00:00:00 GMT 2017 pseevers Tulip poplar Liriodendron tulipifera Fruit (None) 39.234563000000000 -84.592119000000000 74832
Fri Feb 24 00:00:00 GMT 2017 gobrechj Tulip poplar Liriodendron tulipifera Leaves Unfolding (None) 39.879470000000000 -76.870890000000000 75041
Fri Feb 24 00:00:00 GMT 2017 gobrechj Tulip poplar Liriodendron tulipifera Leaves Changing Color (None) 39.879470000000000 -76.870890000000000 75042
Fri Feb 24 00:00:00 GMT 2017 gobrechj Tulip poplar Liriodendron tulipifera Leaves Dropping (Late) 39.879470000000000 -76.870890000000000 75043
Fri Feb 24 00:00:00 GMT 2017 gobrechj Tulip poplar Liriodendron tulipifera Flowers (Early) 39.879470000000000 -76.870890000000000 75044
Fri Feb 24 00:00:00 GMT 2017 gobrechj Tulip poplar Liriodendron tulipifera Fruit (None) 39.879470000000000 -76.870890000000000 75045
Wed Mar 08 00:00:00 GMT 2017 bthomps1 Tulip poplar Liriodendron tulipifera Bud Burst 38.195980000000000 -85.534280000000000 75253
Mon Mar 20 00:00:00 GMT 2017 ojohnstone Tulip poplar Liriodendron tulipifera Leaves Unfolding (Early) 37.292310000000000 -85.950890000000000 75819
Mon Mar 20 00:00:00 GMT 2017 ojohnstone Tulip poplar Liriodendron tulipifera Leaves Changing Color (Early) 37.292310000000000 -85.950890000000000 75820
Mon Mar 20 00:00:00 GMT 2017 ojohnstone Tulip poplar Liriodendron tulipifera Leaves Dropping (None) 37.292310000000000 -85.950890000000000 75821
Mon Mar 20 00:00:00 GMT 2017 ojohnstone Tulip poplar Liriodendron tulipifera Flowers (None) 37.292310000000000 -85.950890000000000 75822
Mon Mar 20 00:00:00 GMT 2017 ojohnstone Tulip poplar Liriodendron tulipifera Fruit (None) 37.292310000000000 -85.950890000000000 75823
Mon Mar 20 00:00:00 GMT 2017 kayliebutler Tulip poplar Liriodendron tulipifera Leaves Unfolding (None) 37.292310000000000 -85.950890000000000 75864
Mon Mar 20 00:00:00 GMT 2017 kayliebutler Tulip poplar Liriodendron tulipifera Leaves Changing Color (None) 37.292310000000000 -85.950890000000000 75865
Mon Mar 20 00:00:00 GMT 2017 kayliebutler Tulip poplar Liriodendron tulipifera Leaves Dropping (None) 37.292310000000000 -85.950890000000000 75866
Mon Mar 20 00:00:00 GMT 2017 kayliebutler Tulip poplar Liriodendron tulipifera Flowers (Early) 37.292310000000000 -85.950890000000000 75867
Mon Mar 20 00:00:00 GMT 2017 kayliebutler Tulip poplar Liriodendron tulipifera Fruit (None) 37.292310000000000 -85.950890000000000 75868
Mon Mar 20 00:00:00 GMT 2017 Zasims Tulip poplar Liriodendron tulipifera Leaves Unfolding (None) 37.292310000000000 -85.950890000000000 75869
Mon Mar 20 00:00:00 GMT 2017 Zasims Tulip poplar Liriodendron tulipifera Leaves Changing Color (None) 37.292310000000000 -85.950890000000000 75870
Mon Mar 20 00:00:00 GMT 2017 Zasims Tulip poplar Liriodendron tulipifera Leaves Dropping (Late) 37.292310000000000 -85.950890000000000 75871
Mon Mar 20 00:00:00 GMT 2017 Zasims Tulip poplar Liriodendron tulipifera Flowers (None) 37.292310000000000 -85.950890000000000 75872
Mon Mar 20 00:00:00 GMT 2017 Zasims Tulip poplar Liriodendron tulipifera Fruit (None) 37.292310000000000 -85.950890000000000 75873
Mon Mar 20 00:00:00 GMT 2017 kenziebrooke2017 Tulip poplar Liriodendron tulipifera Leaves Unfolding (None) 37.259620000000000 -85.881670000000000 75874
Mon Mar 20 00:00:00 GMT 2017 kenziebrooke2017 Tulip poplar Liriodendron tulipifera Leaves Changing Color (None) 37.259620000000000 -85.881670000000000 75875
Mon Mar 20 00:00:00 GMT 2017 kenziebrooke2017 Tulip poplar Liriodendron tulipifera Leaves Dropping (None) 37.259620000000000 -85.881670000000000 75876
Mon Mar 20 00:00:00 GMT 2017 kenziebrooke2017 Tulip poplar Liriodendron tulipifera Flowers (None) 37.259620000000000 -85.881670000000000 75877
Mon Mar 20 00:00:00 GMT 2017 kenziebrooke2017 Tulip poplar Liriodendron tulipifera Fruit (None) 37.259620000000000 -85.881670000000000 75878
Mon Mar 20 00:00:00 GMT 2017 aaedwards Tulip poplar Liriodendron tulipifera Leaves Unfolding (None) 37.259620000000000 -85.881670000000000 75879
Mon Mar 20 00:00:00 GMT 2017 aaedwards Tulip poplar Liriodendron tulipifera Leaves Changing Color (None) 37.259620000000000 -85.881670000000000 75880
Mon Mar 20 00:00:00 GMT 2017 aaedwards Tulip poplar Liriodendron tulipifera Leaves Dropping (None) 37.259620000000000 -85.881670000000000 75881
Mon Mar 20 00:00:00 GMT 2017 aaedwards Tulip poplar Liriodendron tulipifera Flowers (None) 37.259620000000000 -85.881670000000000 75882
Mon Mar 20 00:00:00 GMT 2017 aaedwards Tulip poplar Liriodendron tulipifera Fruit (None) 37.259620000000000 -85.881670000000000 75883
Mon Mar 20 00:00:00 GMT 2017 desireehuff Tulip poplar Liriodendron tulipifera Leaves Unfolding (None) 37.259680000000000 -85.881480000000000 75889
Mon Mar 20 00:00:00 GMT 2017 desireehuff Tulip poplar Liriodendron tulipifera Leaves Changing Color (None) 37.259680000000000 -85.881480000000000 75890
Mon Mar 20 00:00:00 GMT 2017 desireehuff Tulip poplar Liriodendron tulipifera Leaves Dropping (Late) 37.259680000000000 -85.881480000000000 75891
Mon Mar 20 00:00:00 GMT 2017 desireehuff Tulip poplar Liriodendron tulipifera Flowers (None) 37.259680000000000 -85.881480000000000 75892
Mon Mar 20 00:00:00 GMT 2017 desireehuff Tulip poplar Liriodendron tulipifera Fruit (None) 37.259680000000000 -85.881480000000000 75893
Mon Mar 20 00:00:00 GMT 2017 clinton10179 Tulip poplar Liriodendron tulipifera Leaves Unfolding (None) 37.272280000000000 -85.891080000000000 75894
Mon Mar 20 00:00:00 GMT 2017 clinton10179 Tulip poplar Liriodendron tulipifera Leaves Changing Color (None) 37.272280000000000 -85.891080000000000 75895
Mon Mar 20 00:00:00 GMT 2017 clinton10179 Tulip poplar Liriodendron tulipifera Leaves Dropping (None) 37.272280000000000 -85.891080000000000 75896
Mon Mar 20 00:00:00 GMT 2017 clinton10179 Tulip poplar Liriodendron tulipifera Flowers (None) 37.272280000000000 -85.891080000000000 75897
Mon Mar 20 00:00:00 GMT 2017 clinton10179 Tulip poplar Liriodendron tulipifera Fruit (None) 37.272280000000000 -85.891080000000000 75898
Mon Mar 20 00:00:00 GMT 2017 jacoblobb Tulip poplar Liriodendron tulipifera Leaves Unfolding (None) 37.257386000000000 -85.879354000000000 75899
Mon Mar 20 00:00:00 GMT 2017 jacoblobb Tulip poplar Liriodendron tulipifera Leaves Changing Color (None) 37.257386000000000 -85.879354000000000 75900
Mon Mar 20 00:00:00 GMT 2017 jacoblobb Tulip poplar Liriodendron tulipifera Leaves Dropping (None) 37.257386000000000 -85.879354000000000 75901
Mon Mar 20 00:00:00 GMT 2017 jacoblobb Tulip poplar Liriodendron tulipifera Flowers (None) 37.257386000000000 -85.879354000000000 75902
Mon Mar 20 00:00:00 GMT 2017 jacoblobb Tulip poplar Liriodendron tulipifera Fruit (None) 37.257386000000000 -85.879354000000000 75903
Mon Mar 20 00:00:00 GMT 2017 kalebtrent Tulip poplar Liriodendron tulipifera Leaves Unfolding (None) 37.272280000000000 -85.891080000000000 75904
Mon Mar 20 00:00:00 GMT 2017 kalebtrent Tulip poplar Liriodendron tulipifera Leaves Changing Color (None) 37.272280000000000 -85.891080000000000 75905
Mon Mar 20 00:00:00 GMT 2017 kalebtrent Tulip poplar Liriodendron tulipifera Leaves Dropping (Late) 37.272280000000000 -85.891080000000000 75906
Mon Mar 20 00:00:00 GMT 2017 kalebtrent Tulip poplar Liriodendron tulipifera Flowers (Early) 37.272280000000000 -85.891080000000000 75907
Mon Mar 20 00:00:00 GMT 2017 kalebtrent Tulip poplar Liriodendron tulipifera Fruit (None) 37.272280000000000 -85.891080000000000 75908
Mon Mar 20 00:00:00 GMT 2017 jinseystinson Tulip poplar Liriodendron tulipifera Leaves Unfolding (Early) 37.272280000000000 -85.891080000000000 75909
Mon Mar 20 00:00:00 GMT 2017 jinseystinson Tulip poplar Liriodendron tulipifera Leaves Changing Color (None) 37.272280000000000 -85.891080000000000 75910
Mon Mar 20 00:00:00 GMT 2017 jinseystinson Tulip poplar Liriodendron tulipifera Leaves Dropping (None) 37.272280000000000 -85.891080000000000 75911
Mon Mar 20 00:00:00 GMT 2017 jinseystinson Tulip poplar Liriodendron tulipifera Flowers (None) 37.272280000000000 -85.891080000000000 75912
Mon Mar 20 00:00:00 GMT 2017 jinseystinson Tulip poplar Liriodendron tulipifera Fruit (None) 37.272280000000000 -85.891080000000000 75913
Mon Mar 20 00:00:00 GMT 2017 GoldenBadgeStudios Tulip poplar Liriodendron tulipifera Leaves Unfolding (Early) 37.258877000000000 -85.882446000000000 75914
Mon Mar 20 00:00:00 GMT 2017 GoldenBadgeStudios Tulip poplar Liriodendron tulipifera Leaves Changing Color (None) 37.258877000000000 -85.882446000000000 75915
Mon Mar 20 00:00:00 GMT 2017 GoldenBadgeStudios Tulip poplar Liriodendron tulipifera Leaves Dropping (None) 37.258877000000000 -85.882446000000000 75916
Mon Mar 20 00:00:00 GMT 2017 GoldenBadgeStudios Tulip poplar Liriodendron tulipifera Flowers (None) 37.258877000000000 -85.882446000000000 75917
Mon Mar 20 00:00:00 GMT 2017 GoldenBadgeStudios Tulip poplar Liriodendron tulipifera Fruit (None) 37.258877000000000 -85.882446000000000 75918
Mon Mar 20 00:00:00 GMT 2017 CHatch22 Tulip poplar Liriodendron tulipifera Leaves Unfolding (Early) 37.259620000000000 -85.881670000000000 75919
Mon Mar 20 00:00:00 GMT 2017 CHatch22 Tulip poplar Liriodendron tulipifera Leaves Changing Color (None) 37.259620000000000 -85.881670000000000 75920
Mon Mar 20 00:00:00 GMT 2017 CHatch22 Tulip poplar Liriodendron tulipifera Leaves Dropping (None) 37.259620000000000 -85.881670000000000 75921
Mon Mar 20 00:00:00 GMT 2017 CHatch22 Tulip poplar Liriodendron tulipifera Flowers (None) 37.259620000000000 -85.881670000000000 75922
Mon Mar 20 00:00:00 GMT 2017 CHatch22 Tulip poplar Liriodendron tulipifera Fruit (None) 37.259620000000000 -85.881670000000000 75923
Mon Mar 20 00:00:00 GMT 2017 TheMcButter Tulip poplar Liriodendron tulipifera Leaves Unfolding (Early) 37.259523000000000 -85.881309000000000 75924
Mon Mar 20 00:00:00 GMT 2017 TheMcButter Tulip poplar Liriodendron tulipifera Leaves Changing Color (None) 37.259523000000000 -85.881309000000000 75925
Mon Mar 20 00:00:00 GMT 2017 TheMcButter Tulip poplar Liriodendron tulipifera Leaves Dropping (None) 37.259523000000000 -85.881309000000000 75926
Mon Mar 20 00:00:00 GMT 2017 TheMcButter Tulip poplar Liriodendron tulipifera Flowers (None) 37.259523000000000 -85.881309000000000 75927
Mon Mar 20 00:00:00 GMT 2017 TheMcButter Tulip poplar Liriodendron tulipifera Fruit (None) 37.259523000000000 -85.881309000000000 75928
Mon Mar 20 00:00:00 GMT 2017 mollyjean083 Tulip poplar Liriodendron tulipifera Leaves Unfolding (None) 37.259680000000000 -85.881480000000000 75934
Mon Mar 20 00:00:00 GMT 2017 mollyjean083 Tulip poplar Liriodendron tulipifera Leaves Changing Color (None) 37.259680000000000 -85.881480000000000 75935
Mon Mar 20 00:00:00 GMT 2017 mollyjean083 Tulip poplar Liriodendron tulipifera Leaves Dropping (None) 37.259680000000000 -85.881480000000000 75936
Mon Mar 20 00:00:00 GMT 2017 mollyjean083 Tulip poplar Liriodendron tulipifera Flowers (Early) 37.259680000000000 -85.881480000000000 75937
Mon Mar 20 00:00:00 GMT 2017 mollyjean083 Tulip poplar Liriodendron tulipifera Fruit (Early) 37.259680000000000 -85.881480000000000 75938
Mon Mar 20 00:00:00 GMT 2017 Mshrader Tulip poplar Liriodendron tulipifera Leaves Unfolding (None) 37.259094000000000 -85.881886000000000 75993
Mon Mar 20 00:00:00 GMT 2017 Mshrader Tulip poplar Liriodendron tulipifera Leaves Changing Color (None) 37.259094000000000 -85.881886000000000 75994
Mon Mar 20 00:00:00 GMT 2017 Mshrader Tulip poplar Liriodendron tulipifera Leaves Dropping (None) 37.259094000000000 -85.881886000000000 75995
Mon Mar 20 00:00:00 GMT 2017 Mshrader Tulip poplar Liriodendron tulipifera Flowers (None) 37.259094000000000 -85.881886000000000 75996
Mon Mar 20 00:00:00 GMT 2017 Mshrader Tulip poplar Liriodendron tulipifera Fruit (None) 37.259094000000000 -85.881886000000000 75997
Fri Mar 24 00:00:00 GMT 2017 Zasims Tulip poplar Liriodendron tulipifera Leaves Unfolding (Late) 37.292310000000000 -85.950890000000000 76232
Fri Mar 24 00:00:00 GMT 2017 Zasims Tulip poplar Liriodendron tulipifera Leaves Changing Color (None) 37.292310000000000 -85.950890000000000 76233
Fri Mar 24 00:00:00 GMT 2017 Zasims Tulip poplar Liriodendron tulipifera Leaves Dropping (Late) 37.292310000000000 -85.950890000000000 76234
Fri Mar 24 00:00:00 GMT 2017 Zasims Tulip poplar Liriodendron tulipifera Flowers (Early) 37.292310000000000 -85.950890000000000 76235
Fri Mar 24 00:00:00 GMT 2017 Zasims Tulip poplar Liriodendron tulipifera Fruit (None) 37.292310000000000 -85.950890000000000 76236
Fri Mar 24 00:00:00 GMT 2017 kayliebutler Tulip poplar Liriodendron tulipifera Leaves Unfolding (Early) 37.292310000000000 -85.950890000000000 76237
Fri Mar 24 00:00:00 GMT 2017 kayliebutler Tulip poplar Liriodendron tulipifera Leaves Changing Color (None) 37.292310000000000 -85.950890000000000 76238
Fri Mar 24 00:00:00 GMT 2017 kayliebutler Tulip poplar Liriodendron tulipifera Leaves Dropping (None) 37.292310000000000 -85.950890000000000 76239
Fri Mar 24 00:00:00 GMT 2017 kayliebutler Tulip poplar Liriodendron tulipifera Flowers (Early) 37.292310000000000 -85.950890000000000 76240
Fri Mar 24 00:00:00 GMT 2017 kayliebutler Tulip poplar Liriodendron tulipifera Fruit (None) 37.292310000000000 -85.950890000000000 76241
Fri Mar 24 00:00:00 GMT 2017 mollyjean083 Tulip poplar Liriodendron tulipifera Leaves Unfolding (None) 37.259680000000000 -85.881480000000000 76242
Fri Mar 24 00:00:00 GMT 2017 mollyjean083 Tulip poplar Liriodendron tulipifera Leaves Changing Color (None) 37.259680000000000 -85.881480000000000 76243
Fri Mar 24 00:00:00 GMT 2017 mollyjean083 Tulip poplar Liriodendron tulipifera Leaves Dropping (None) 37.259680000000000 -85.881480000000000 76244
Fri Mar 24 00:00:00 GMT 2017 mollyjean083 Tulip poplar Liriodendron tulipifera Flowers (Early) 37.259680000000000 -85.881480000000000 76245
Fri Mar 24 00:00:00 GMT 2017 mollyjean083 Tulip poplar Liriodendron tulipifera Fruit (Early) 37.259680000000000 -85.881480000000000 76246
Fri Mar 24 00:00:00 GMT 2017 jinseystinson Tulip poplar Liriodendron tulipifera Leaves Unfolding (Early) 37.292310000000000 -85.950890000000000 76259
Fri Mar 24 00:00:00 GMT 2017 jinseystinson Tulip poplar Liriodendron tulipifera Leaves Changing Color (None) 37.292310000000000 -85.950890000000000 76260
Fri Mar 24 00:00:00 GMT 2017 jinseystinson Tulip poplar Liriodendron tulipifera Leaves Dropping (None) 37.292310000000000 -85.950890000000000 76261
Fri Mar 24 00:00:00 GMT 2017 jinseystinson Tulip poplar Liriodendron tulipifera Flowers (None) 37.292310000000000 -85.950890000000000 76262
Fri Mar 24 00:00:00 GMT 2017 jinseystinson Tulip poplar Liriodendron tulipifera Fruit (None) 37.292310000000000 -85.950890000000000 76263
Fri Mar 24 00:00:00 GMT 2017 kalebtrent Tulip poplar Liriodendron tulipifera Leaves Unfolding (Early) 40.000000000000000 -100.000000000000000 76281
Fri Mar 24 00:00:00 GMT 2017 kalebtrent Tulip poplar Liriodendron tulipifera Leaves Changing Color (None) 40.000000000000000 -100.000000000000000 76282
Fri Mar 24 00:00:00 GMT 2017 kalebtrent Tulip poplar Liriodendron tulipifera Leaves Dropping (None) 40.000000000000000 -100.000000000000000 76283
Fri Mar 24 00:00:00 GMT 2017 aaedwards Tulip poplar Liriodendron tulipifera Leaves Unfolding (Early) 37.259620000000000 -85.881670000000000 76284
Fri Mar 24 00:00:00 GMT 2017 kalebtrent Tulip poplar Liriodendron tulipifera Flowers (Early) 40.000000000000000 -100.000000000000000 76285
Fri Mar 24 00:00:00 GMT 2017 aaedwards Tulip poplar Liriodendron tulipifera Leaves Changing Color (None) 37.259620000000000 -85.881670000000000 76286
Fri Mar 24 00:00:00 GMT 2017 kalebtrent Tulip poplar Liriodendron tulipifera Fruit (None) 40.000000000000000 -100.000000000000000 76287
Fri Mar 24 00:00:00 GMT 2017 aaedwards Tulip poplar Liriodendron tulipifera Leaves Dropping (None) 37.259620000000000 -85.881670000000000 76288
Fri Mar 24 00:00:00 GMT 2017 aaedwards Tulip poplar Liriodendron tulipifera Flowers (None) 37.259620000000000 -85.881670000000000 76289
Fri Mar 24 00:00:00 GMT 2017 aaedwards Tulip poplar Liriodendron tulipifera Fruit (None) 37.259620000000000 -85.881670000000000 76290
Fri Mar 24 00:00:00 GMT 2017 desireehuff Tulip poplar Liriodendron tulipifera Leaves Unfolding (Early) 37.259680000000000 -85.881480000000000 76291
Fri Mar 24 00:00:00 GMT 2017 desireehuff Tulip poplar Liriodendron tulipifera Leaves Changing Color (None) 37.259680000000000 -85.881480000000000 76292
Fri Mar 24 00:00:00 GMT 2017 desireehuff Tulip poplar Liriodendron tulipifera Leaves Dropping (None) 37.259680000000000 -85.881480000000000 76293
Fri Mar 24 00:00:00 GMT 2017 desireehuff Tulip poplar Liriodendron tulipifera Flowers (None) 37.259680000000000 -85.881480000000000 76294
Fri Mar 24 00:00:00 GMT 2017 desireehuff Tulip poplar Liriodendron tulipifera Fruit (None) 37.259680000000000 -85.881480000000000 76295
Fri Mar 24 00:00:00 GMT 2017 GoldenBadgeStudios Tulip poplar Liriodendron tulipifera Leaves Unfolding (Early) 37.258918000000000 -85.882328000000000 76301
Fri Mar 24 00:00:00 GMT 2017 GoldenBadgeStudios Tulip poplar Liriodendron tulipifera Leaves Changing Color (None) 37.258918000000000 -85.882328000000000 76302
Fri Mar 24 00:00:00 GMT 2017 GoldenBadgeStudios Tulip poplar Liriodendron tulipifera Leaves Dropping (None) 37.258918000000000 -85.882328000000000 76303
Fri Mar 24 00:00:00 GMT 2017 GoldenBadgeStudios Tulip poplar Liriodendron tulipifera Flowers (None) 37.258918000000000 -85.882328000000000 76304
Fri Mar 24 00:00:00 GMT 2017 GoldenBadgeStudios Tulip poplar Liriodendron tulipifera Fruit (None) 37.258918000000000 -85.882328000000000 76305
Fri Mar 24 00:00:00 GMT 2017 CHatch22 Tulip poplar Liriodendron tulipifera Leaves Unfolding (Early) 37.263363000000000 -85.878711000000000 76306
Fri Mar 24 00:00:00 GMT 2017 CHatch22 Tulip poplar Liriodendron tulipifera Leaves Changing Color (None) 37.263363000000000 -85.878711000000000 76307
Fri Mar 24 00:00:00 GMT 2017 CHatch22 Tulip poplar Liriodendron tulipifera Leaves Dropping (None) 37.263363000000000 -85.878711000000000 76308
Fri Mar 24 00:00:00 GMT 2017 CHatch22 Tulip poplar Liriodendron tulipifera Flowers (None) 37.263363000000000 -85.878711000000000 76309
Fri Mar 24 00:00:00 GMT 2017 CHatch22 Tulip poplar Liriodendron tulipifera Fruit (None) 37.263363000000000 -85.878711000000000 76310
Fri Mar 24 00:00:00 GMT 2017 Mshrader Tulip poplar Liriodendron tulipifera Leaves Unfolding (None) 37.259025000000000 -85.882316000000000 76361
Fri Mar 24 00:00:00 GMT 2017 Mshrader Tulip poplar Liriodendron tulipifera Leaves Changing Color (None) 37.259025000000000 -85.882316000000000 76362
Fri Mar 24 00:00:00 GMT 2017 Mshrader Tulip poplar Liriodendron tulipifera Leaves Dropping (None) 37.259025000000000 -85.882316000000000 76363
Fri Mar 24 00:00:00 GMT 2017 Mshrader Tulip poplar Liriodendron tulipifera Flowers (None) 37.259025000000000 -85.882316000000000 76364
Fri Mar 24 00:00:00 GMT 2017 Mshrader Tulip poplar Liriodendron tulipifera Fruit (None) 37.259025000000000 -85.882316000000000 76365
Fri Mar 31 00:00:00 GMT 2017 bthomps1 Tulip poplar Liriodendron tulipifera First Leaf 38.195980000000000 -85.534280000000000 76620
Mon Apr 03 00:00:00 GMT 2017 fran Tulip poplar Liriodendron tulipifera Bud Burst 40.724440000000000 -73.943360000000000 76758
Mon Apr 03 00:00:00 GMT 2017 rachelsafko Tulip poplar Liriodendron tulipifera Bud Burst 40.726880000000000 -73.943490000000000 76773
Mon Apr 03 00:00:00 GMT 2017 SWRaiders_Southern_Wells_High_School_reporter3 Tulip poplar Liriodendron tulipifera Bud Burst 40.609672000000000 -85.281131000000000 76774
Wed Mar 29 00:00:00 GMT 2017 ldanders Tulip poplar Liriodendron tulipifera Bud Burst 35.128600000000000 -80.717750000000000 76779
Wed Mar 29 00:00:00 GMT 2017 ldanders Tulip poplar Liriodendron tulipifera First Leaf 35.128600000000000 -80.717750000000000 76780
Wed Mar 29 00:00:00 GMT 2017 ldanders Tulip poplar Liriodendron tulipifera All Leaves Unfolded 35.128600000000000 -80.717750000000000 76781
Wed Mar 29 00:00:00 GMT 2017 ldanders Tulip poplar Liriodendron tulipifera First Flower 35.128600000000000 -80.717750000000000 76782
Wed Mar 29 00:00:00 GMT 2017 ldanders Tulip poplar Liriodendron tulipifera Full Flower 35.128600000000000 -80.717750000000000 76783
Tue Oct 11 00:00:00 GMT 2016 ldanders Tulip poplar Liriodendron tulipifera First Ripe Fruit 35.128600000000000 -80.717750000000000 76784
Tue Oct 11 00:00:00 GMT 2016 ldanders Tulip poplar Liriodendron tulipifera Full Fruiting 35.128600000000000 -80.717750000000000 76785
Wed Sep 28 00:00:00 GMT 2016 ldanders Tulip poplar Liriodendron tulipifera 50% Color 35.128600000000000 -80.717750000000000 76786
Tue Oct 11 00:00:00 GMT 2016 ldanders Tulip poplar Liriodendron tulipifera 50% Leaf Fall 35.128600000000000 -80.717750000000000 76787
Wed Apr 05 00:00:00 GMT 2017 gobrechj Tulip poplar Liriodendron tulipifera Leaves Unfolding (Early) 39.874540000000000 -76.865810000000000 76872
Wed Apr 05 00:00:00 GMT 2017 gobrechj Tulip poplar Liriodendron tulipifera Leaves Unfolding (Early) 39.874540000000000 -76.865810000000000 76873
Wed Apr 05 00:00:00 GMT 2017 gobrechj Tulip poplar Liriodendron tulipifera Leaves Changing Color (None) 39.874540000000000 -76.865810000000000 76874
Wed Apr 05 00:00:00 GMT 2017 gobrechj Tulip poplar Liriodendron tulipifera Leaves Changing Color (None) 39.874540000000000 -76.865810000000000 76875
Wed Apr 05 00:00:00 GMT 2017 gobrechj Tulip poplar Liriodendron tulipifera Leaves Dropping (Late) 39.874540000000000 -76.865810000000000 76876
Wed Apr 05 00:00:00 GMT 2017 gobrechj Tulip poplar Liriodendron tulipifera Leaves Dropping (Late) 39.874540000000000 -76.865810000000000 76877
Wed Apr 05 00:00:00 GMT 2017 gobrechj Tulip poplar Liriodendron tulipifera Flowers (None) 39.874540000000000 -76.865810000000000 76878
Wed Apr 05 00:00:00 GMT 2017 gobrechj Tulip poplar Liriodendron tulipifera Flowers (None) 39.874540000000000 -76.865810000000000 76879
Wed Apr 05 00:00:00 GMT 2017 gobrechj Tulip poplar Liriodendron tulipifera Fruit (None) 39.874540000000000 -76.865810000000000 76880
Wed Apr 05 00:00:00 GMT 2017 gobrechj Tulip poplar Liriodendron tulipifera Fruit (None) 39.874540000000000 -76.865810000000000 76881
Wed Jan 25 00:00:00 GMT 2017 cbemerick Tulip poplar Liriodendron tulipifera Bud Burst 39.170490000000000 -86.513220000000000 76937
Fri Mar 31 00:00:00 GMT 2017 spurtell Tulip poplar Liriodendron tulipifera Bud Burst 39.169500000000000 -86.512900000000000 77283
Mon Apr 03 00:00:00 GMT 2017 spurtell Tulip poplar Liriodendron tulipifera First Ripe Fruit 39.169500000000000 -86.512900000000000 77284
Wed Apr 05 00:00:00 GMT 2017 spurtell Tulip poplar Liriodendron tulipifera Full Fruiting 39.169500000000000 -86.512900000000000 77285
Tue Apr 11 00:00:00 GMT 2017 BSimmons0049 Tulip poplar Liriodendron tulipifera Leaves Unfolding (None) 37.272280000000000 -85.891080000000000 77496
Tue Apr 11 00:00:00 GMT 2017 BSimmons0049 Tulip poplar Liriodendron tulipifera Leaves Changing Color (None) 37.272280000000000 -85.891080000000000 77497
Tue Apr 11 00:00:00 GMT 2017 BSimmons0049 Tulip poplar Liriodendron tulipifera Leaves Dropping (None) 37.272280000000000 -85.891080000000000 77498
Tue Apr 11 00:00:00 GMT 2017 BSimmons0049 Tulip poplar Liriodendron tulipifera Flowers (None) 37.272280000000000 -85.891080000000000 77499
Tue Apr 11 00:00:00 GMT 2017 BSimmons0049 Tulip poplar Liriodendron tulipifera Fruit (None) 37.272280000000000 -85.891080000000000 77500
Tue Apr 11 00:00:00 GMT 2017 Annalesaneal Tulip poplar Liriodendron tulipifera Leaves Unfolding (None) 37.259691000000000 -85.881490000000000 77501
Tue Apr 11 00:00:00 GMT 2017 Annalesaneal Tulip poplar Liriodendron tulipifera Leaves Changing Color (None) 37.259691000000000 -85.881490000000000 77502
Tue Apr 11 00:00:00 GMT 2017 Annalesaneal Tulip poplar Liriodendron tulipifera Leaves Dropping (None) 37.259691000000000 -85.881490000000000 77503
Tue Apr 11 00:00:00 GMT 2017 Annalesaneal Tulip poplar Liriodendron tulipifera Flowers (None) 37.259691000000000 -85.881490000000000 77504
Tue Apr 11 00:00:00 GMT 2017 Annalesaneal Tulip poplar Liriodendron tulipifera Fruit (None) 37.259691000000000 -85.881490000000000 77505
Thu Mar 09 00:00:00 GMT 2017 BSimmons0049 Tulip poplar Liriodendron tulipifera Leaves Unfolding (None) 37.272280000000000 -85.891080000000000 77506
Thu Mar 09 00:00:00 GMT 2017 BSimmons0049 Tulip poplar Liriodendron tulipifera Leaves Changing Color (None) 37.272280000000000 -85.891080000000000 77507
Thu Mar 09 00:00:00 GMT 2017 BSimmons0049 Tulip poplar Liriodendron tulipifera Leaves Dropping (None) 37.272280000000000 -85.891080000000000 77508
Thu Mar 09 00:00:00 GMT 2017 BSimmons0049 Tulip poplar Liriodendron tulipifera Flowers (None) 37.272280000000000 -85.891080000000000 77509
Thu Mar 09 00:00:00 GMT 2017 BSimmons0049 Tulip poplar Liriodendron tulipifera Fruit (None) 37.272280000000000 -85.891080000000000 77510
Tue Apr 11 00:00:00 GMT 2017 Annalesaneal Tulip poplar Liriodendron tulipifera Leaves Unfolding (None) 37.259691000000000 -85.881490000000000 77511
Tue Apr 11 00:00:00 GMT 2017 Annalesaneal Tulip poplar Liriodendron tulipifera Leaves Changing Color (None) 37.259691000000000 -85.881490000000000 77512
Tue Apr 11 00:00:00 GMT 2017 Annalesaneal Tulip poplar Liriodendron tulipifera Leaves Dropping (None) 37.259691000000000 -85.881490000000000 77513
Tue Apr 11 00:00:00 GMT 2017 Annalesaneal Tulip poplar Liriodendron tulipifera Flowers (None) 37.259691000000000 -85.881490000000000 77514
Tue Apr 11 00:00:00 GMT 2017 Annalesaneal Tulip poplar Liriodendron tulipifera Fruit (None) 37.259691000000000 -85.881490000000000 77515
Tue Apr 11 00:00:00 GMT 2017 jacoblobb Tulip poplar Liriodendron tulipifera Leaves Unfolding (Middle) 37.253697000000000 -85.885963000000000 77516
Tue Apr 11 00:00:00 GMT 2017 jacoblobb Tulip poplar Liriodendron tulipifera Leaves Changing Color (None) 37.253697000000000 -85.885963000000000 77517
Tue Apr 11 00:00:00 GMT 2017 jacoblobb Tulip poplar Liriodendron tulipifera Leaves Dropping (None) 37.253697000000000 -85.885963000000000 77518
Tue Apr 11 00:00:00 GMT 2017 jacoblobb Tulip poplar Liriodendron tulipifera Flowers (Middle) 37.253697000000000 -85.885963000000000 77519
Tue Apr 11 00:00:00 GMT 2017 jacoblobb Tulip poplar Liriodendron tulipifera Fruit (None) 37.253697000000000 -85.885963000000000 77520
Tue Apr 11 00:00:00 GMT 2017 gobrechj Tulip poplar Liriodendron tulipifera Leaves Unfolding (Early) 39.749698000000000 -76.965408000000000 77559
Tue Apr 11 00:00:00 GMT 2017 gobrechj Tulip poplar Liriodendron tulipifera Leaves Unfolding (Early) 39.749698000000000 -76.965408000000000 77560
Tue Apr 11 00:00:00 GMT 2017 gobrechj Tulip poplar Liriodendron tulipifera Leaves Changing Color (None) 39.749698000000000 -76.965408000000000 77561
Tue Apr 11 00:00:00 GMT 2017 gobrechj Tulip poplar Liriodendron tulipifera Leaves Changing Color (None) 39.749698000000000 -76.965408000000000 77562
Tue Apr 11 00:00:00 GMT 2017 gobrechj Tulip poplar Liriodendron tulipifera Leaves Dropping (None) 39.749698000000000 -76.965408000000000 77563
Tue Apr 11 00:00:00 GMT 2017 gobrechj Tulip poplar Liriodendron tulipifera Leaves Dropping (None) 39.749698000000000 -76.965408000000000 77564
Tue Apr 11 00:00:00 GMT 2017 gobrechj Tulip poplar Liriodendron tulipifera Flowers (Early) 39.749698000000000 -76.965408000000000 77565
Tue Apr 11 00:00:00 GMT 2017 gobrechj Tulip poplar Liriodendron tulipifera Flowers (Early) 39.749698000000000 -76.965408000000000 77566
Tue Apr 11 00:00:00 GMT 2017 gobrechj Tulip poplar Liriodendron tulipifera Fruit (None) 39.749698000000000 -76.965408000000000 77567
Tue Apr 11 00:00:00 GMT 2017 gobrechj Tulip poplar Liriodendron tulipifera Fruit (None) 39.749698000000000 -76.965408000000000 77568
Tue Apr 11 00:00:00 GMT 2017 poleson Tulip poplar Liriodendron tulipifera Bud Burst 40.800840000000000 -85.131750000000000 77580
Wed Apr 12 00:00:00 GMT 2017 gobrechj Tulip poplar Liriodendron tulipifera Leaves Unfolding (Early) 40.000000000000000 -100.000000000000000 77763
Wed Apr 12 00:00:00 GMT 2017 gobrechj Tulip poplar Liriodendron tulipifera Leaves Changing Color (None) 40.000000000000000 -100.000000000000000 77764
Wed Apr 12 00:00:00 GMT 2017 gobrechj Tulip poplar Liriodendron tulipifera Leaves Dropping (None) 40.000000000000000 -100.000000000000000 77765
Wed Apr 12 00:00:00 GMT 2017 gobrechj Tulip poplar Liriodendron tulipifera Flowers (None) 40.000000000000000 -100.000000000000000 77766
Wed Apr 12 00:00:00 GMT 2017 gobrechj Tulip poplar Liriodendron tulipifera Fruit (None) 40.000000000000000 -100.000000000000000 77767
Fri Apr 14 00:00:00 GMT 2017 AshevilleSchool Tulip poplar Liriodendron tulipifera Bud Burst 35.568290000000000 -82.621970000000000 77912
Fri Apr 14 00:00:00 GMT 2017 AshevilleSchool Tulip poplar Liriodendron tulipifera Bud Burst 35.566279000000000 -82.621275000000000 77927
Fri Apr 14 00:00:00 GMT 2017 AshevilleSchool_Asheville_School_Tennis_Courts_reporter1 Tulip poplar Liriodendron tulipifera All Leaves Unfolded 35.564786000000000 -82.624075000000000 77929
Fri Apr 14 00:00:00 GMT 2017 AshevilleSchool_Asheville_School_Kehaya_reporter2 Tulip poplar Liriodendron tulipifera All Leaves Unfolded 35.566279000000000 -82.621275000000000 77980
Tue Apr 11 00:00:00 GMT 2017 CHABudburst Tulip poplar Liriodendron tulipifera First Leaf 40.724580000000000 -74.328130000000000 78018
Wed Apr 05 00:00:00 GMT 2017 CHABudburst Tulip poplar Liriodendron tulipifera Bud Burst 40.724580000000000 -74.328130000000000 78019
Fri Apr 14 00:00:00 GMT 2017 bthomps1 Tulip poplar Liriodendron tulipifera All Leaves Unfolded 38.195980000000000 -85.534280000000000 78572
Thu Apr 20 00:00:00 GMT 2017 thenaturalist Tulip poplar Liriodendron tulipifera All Leaves Unfolded 39.572800000000000 -75.282500000000000 78925
Sat Apr 08 00:00:00 GMT 2017 laurob_St._John's_University__reporter8 Tulip poplar Liriodendron tulipifera Leaves Unfolding (None) 40.718140000000000 -73.797339000000000 79128
Sat Apr 08 00:00:00 GMT 2017 laurob_St._John's_University__reporter8 Tulip poplar Liriodendron tulipifera Leaves Changing Color (None) 40.718140000000000 -73.797339000000000 79129
Sat Apr 08 00:00:00 GMT 2017 laurob_St._John's_University__reporter8 Tulip poplar Liriodendron tulipifera Leaves Dropping (None) 40.718140000000000 -73.797339000000000 79130
Sat Apr 08 00:00:00 GMT 2017 laurob_St._John's_University__reporter8 Tulip poplar Liriodendron tulipifera Flowers (None) 40.718140000000000 -73.797339000000000 79131
Sat Apr 08 00:00:00 GMT 2017 laurob_St._John's_University__reporter8 Tulip poplar Liriodendron tulipifera Fruit (None) 40.718140000000000 -73.797339000000000 79132
Tue Apr 11 00:00:00 GMT 2017 laurob_St._John's_University__reporter8 Tulip poplar Liriodendron tulipifera Leaves Unfolding (None) 40.718140000000000 -73.797339000000000 79138
Tue Apr 11 00:00:00 GMT 2017 laurob_St._John's_University__reporter8 Tulip poplar Liriodendron tulipifera Leaves Changing Color (None) 40.718140000000000 -73.797339000000000 79139
Tue Apr 11 00:00:00 GMT 2017 laurob_St._John's_University__reporter8 Tulip poplar Liriodendron tulipifera Leaves Dropping (None) 40.718140000000000 -73.797339000000000 79140
Tue Apr 11 00:00:00 GMT 2017 laurob_St._John's_University__reporter8 Tulip poplar Liriodendron tulipifera Flowers (None) 40.718140000000000 -73.797339000000000 79141
Tue Apr 11 00:00:00 GMT 2017 laurob_St._John's_University__reporter8 Tulip poplar Liriodendron tulipifera Fruit (None) 40.718140000000000 -73.797339000000000 79142
Fri Apr 21 00:00:00 GMT 2017 laurob_St._John's_University__reporter8 Tulip poplar Liriodendron tulipifera Leaves Unfolding (Early) 40.718189000000000 -73.797271000000000 79228
Fri Apr 21 00:00:00 GMT 2017 laurob_St._John's_University__reporter8 Tulip poplar Liriodendron tulipifera Leaves Changing Color (None) 40.718189000000000 -73.797271000000000 79229
Fri Apr 21 00:00:00 GMT 2017 laurob_St._John's_University__reporter8 Tulip poplar Liriodendron tulipifera Leaves Dropping (None) 40.718189000000000 -73.797271000000000 79230
Fri Apr 21 00:00:00 GMT 2017 laurob_St._John's_University__reporter8 Tulip poplar Liriodendron tulipifera Flowers (None) 40.718189000000000 -73.797271000000000 79231
Fri Apr 21 00:00:00 GMT 2017 laurob_St._John's_University__reporter8 Tulip poplar Liriodendron tulipifera Fruit (None) 40.718189000000000 -73.797271000000000 79232
Fri Apr 21 00:00:00 GMT 2017 laurob_St._John's_University__reporter8 Tulip poplar Liriodendron tulipifera Leaves Unfolding (Middle) 40.718136000000000 -73.797376000000000 80019
Fri Apr 21 00:00:00 GMT 2017 laurob_St._John's_University__reporter8 Tulip poplar Liriodendron tulipifera Leaves Changing Color (None) 40.718136000000000 -73.797376000000000 80020
Fri Apr 21 00:00:00 GMT 2017 laurob_St._John's_University__reporter8 Tulip poplar Liriodendron tulipifera Leaves Dropping (None) 40.718136000000000 -73.797376000000000 80021
Fri Apr 21 00:00:00 GMT 2017 laurob_St._John's_University__reporter8 Tulip poplar Liriodendron tulipifera Flowers (None) 40.718136000000000 -73.797376000000000 80022
Fri Apr 21 00:00:00 GMT 2017 laurob_St._John's_University__reporter8 Tulip poplar Liriodendron tulipifera Fruit (None) 40.718136000000000 -73.797376000000000 80023
Sat Apr 22 00:00:00 GMT 2017 laurob_St._John's_University__reporter8 Tulip poplar Liriodendron tulipifera Leaves Unfolding (Middle) 40.718136000000000 -73.797376000000000 80024
Sat Apr 22 00:00:00 GMT 2017 laurob_St._John's_University__reporter8 Tulip poplar Liriodendron tulipifera Leaves Changing Color (None) 40.718136000000000 -73.797376000000000 80025
Sat Apr 22 00:00:00 GMT 2017 laurob_St._John's_University__reporter8 Tulip poplar Liriodendron tulipifera Leaves Dropping (None) 40.718136000000000 -73.797376000000000 80026
Sat Apr 22 00:00:00 GMT 2017 laurob_St._John's_University__reporter8 Tulip poplar Liriodendron tulipifera Flowers (None) 40.718136000000000 -73.797376000000000 80027
Sat Apr 22 00:00:00 GMT 2017 laurob_St._John's_University__reporter8 Tulip poplar Liriodendron tulipifera Fruit (None) 40.718136000000000 -73.797376000000000 80028
Tue Apr 11 00:00:00 GMT 2017 laurob_St._John's_University__reporter8 Tulip poplar Liriodendron tulipifera Bud Burst 40.721400000000000 -73.793200000000000 80059
Tue Apr 11 00:00:00 GMT 2017 laurob_St._John's_University__reporter8 Tulip poplar Liriodendron tulipifera First Leaf 40.721400000000000 -73.793200000000000 80060
Tue Apr 18 00:00:00 GMT 2017 laurob_St._John's_University__reporter8 Tulip poplar Liriodendron tulipifera All Leaves Unfolded 40.721400000000000 -73.793200000000000 80061
Mon Apr 24 00:00:00 GMT 2017 woodsedge Tulip poplar Liriodendron tulipifera First Leaf 38.565400000000000 -78.926000000000000 80421
Wed Apr 26 00:00:00 GMT 2017 woodsedge Tulip poplar Liriodendron tulipifera All Leaves Unfolded 38.565400000000000 -78.926000000000000 80422
Sat Apr 22 00:00:00 GMT 2017 CHABudburst Tulip poplar Liriodendron tulipifera All Leaves Unfolded 40.724580000000000 -74.328130000000000 80683
Fri Feb 24 00:00:00 GMT 2017 rainbowtrees Tulip poplar Liriodendron tulipifera Bud Burst 35.578051000000000 -82.586251000000000 80934
Mon Apr 17 00:00:00 GMT 2017 rainbowtrees Tulip poplar Liriodendron tulipifera All Leaves Unfolded 35.578051000000000 -82.586251000000000 80935
Thu Mar 16 00:00:00 GMT 2017 ey003 Tulip poplar Liriodendron tulipifera Bud Burst 39.584226000000000 -77.003260000000000 81012
Thu Mar 30 00:00:00 GMT 2017 ey003 Tulip poplar Liriodendron tulipifera First Leaf 39.584226000000000 -77.003260000000000 81013
Tue Apr 11 00:00:00 GMT 2017 ey003 Tulip poplar Liriodendron tulipifera All Leaves Unfolded 39.584226000000000 -77.003260000000000 81014
Tue Apr 25 00:00:00 GMT 2017 ey003 Tulip poplar Liriodendron tulipifera First Flower 39.584226000000000 -77.003260000000000 81015
Sun Mar 19 00:00:00 GMT 2017 ey003 Tulip poplar Liriodendron tulipifera Bud Burst 40.362847000000000 -75.583985000000000 81023
Tue Apr 04 00:00:00 GMT 2017 ey003 Tulip poplar Liriodendron tulipifera First Leaf 40.362847000000000 -75.583985000000000 81024
Wed Apr 12 00:00:00 GMT 2017 ey003 Tulip poplar Liriodendron tulipifera All Leaves Unfolded 40.362847000000000 -75.583985000000000 81025
Fri Apr 28 00:00:00 GMT 2017 ey003 Tulip poplar Liriodendron tulipifera First Flower 40.362847000000000 -75.583985000000000 81026
Tue May 02 00:00:00 GMT 2017 gobrechj Tulip poplar Liriodendron tulipifera Leaves Unfolding (Middle) 39.865636000000000 -76.892066000000000 81069
Tue May 02 00:00:00 GMT 2017 gobrechj Tulip poplar Liriodendron tulipifera Leaves Unfolding (Middle) 39.865636000000000 -76.892066000000000 81070
Tue May 02 00:00:00 GMT 2017 gobrechj Tulip poplar Liriodendron tulipifera Leaves Changing Color (None) 39.865636000000000 -76.892066000000000 81071
Tue May 02 00:00:00 GMT 2017 gobrechj Tulip poplar Liriodendron tulipifera Leaves Changing Color (None) 39.865636000000000 -76.892066000000000 81072
Tue May 02 00:00:00 GMT 2017 gobrechj Tulip poplar Liriodendron tulipifera Leaves Dropping (None) 39.865636000000000 -76.892066000000000 81073
Tue May 02 00:00:00 GMT 2017 gobrechj Tulip poplar Liriodendron tulipifera Leaves Dropping (None) 39.865636000000000 -76.892066000000000 81074
Tue May 02 00:00:00 GMT 2017 gobrechj Tulip poplar Liriodendron tulipifera Flowers (Early) 39.865636000000000 -76.892066000000000 81075
Tue May 02 00:00:00 GMT 2017 gobrechj Tulip poplar Liriodendron tulipifera Flowers (Early) 39.865636000000000 -76.892066000000000 81076
Tue May 02 00:00:00 GMT 2017 gobrechj Tulip poplar Liriodendron tulipifera Fruit (None) 39.865636000000000 -76.892066000000000 81077
Tue May 02 00:00:00 GMT 2017 gobrechj Tulip poplar Liriodendron tulipifera Fruit (None) 39.865636000000000 -76.892066000000000 81078
Wed May 03 00:00:00 GMT 2017 gobrechj Tulip poplar Liriodendron tulipifera Leaves Unfolding (Late) 65.430867000000000 -129.550781000000000 81258
Wed May 03 00:00:00 GMT 2017 gobrechj Tulip poplar Liriodendron tulipifera Leaves Unfolding (Late) 65.430867000000000 -129.550781000000000 81259
Wed May 03 00:00:00 GMT 2017 gobrechj Tulip poplar Liriodendron tulipifera Leaves Changing Color (None) 65.430867000000000 -129.550781000000000 81260
Wed May 03 00:00:00 GMT 2017 gobrechj Tulip poplar Liriodendron tulipifera Leaves Changing Color (None) 65.430867000000000 -129.550781000000000 81261
Wed May 03 00:00:00 GMT 2017 gobrechj Tulip poplar Liriodendron tulipifera Leaves Dropping (None) 65.430867000000000 -129.550781000000000 81262
Wed May 03 00:00:00 GMT 2017 gobrechj Tulip poplar Liriodendron tulipifera Leaves Dropping (None) 65.430867000000000 -129.550781000000000 81263
Wed May 03 00:00:00 GMT 2017 gobrechj Tulip poplar Liriodendron tulipifera Flowers (Early) 65.430867000000000 -129.550781000000000 81264
Wed May 03 00:00:00 GMT 2017 gobrechj Tulip poplar Liriodendron tulipifera Flowers (Early) 65.430867000000000 -129.550781000000000 81265
Wed May 03 00:00:00 GMT 2017 gobrechj Tulip poplar Liriodendron tulipifera Fruit (None) 65.430867000000000 -129.550781000000000 81266
Wed May 03 00:00:00 GMT 2017 gobrechj Tulip poplar Liriodendron tulipifera Fruit (None) 65.430867000000000 -129.550781000000000 81267
Mon May 08 00:00:00 GMT 2017 CHABudburst Tulip poplar Liriodendron tulipifera First Flower 40.724580000000000 -74.328130000000000 82133

*All downloadable materials require the free Adobe Reader.